<?xml version="1.0" encoding="UTF-8" standalone="no" ?>
<gpx xmlns="http://www.topografix.com/GPX/1/1" xmlns:xsi="http://www.w3.org/2001/XMLSchema-instance" xsi:schemaLocation="http://www.topografix.com/GPX/1/1 http://www.topografix.com/GPX/1/1/gpx.xsd" version="1.1" creator="VisuGPX - https://www.visugpx.com">
  <metadata>
    <name>83-V-Lorgues</name>
    <desc><![CDATA[grp_trc:]]></desc>
  </metadata>
  <trk>
    <name><![CDATA[6 déc. 2024]]></name>
    <cmt><![CDATA[13:43:54]]></cmt>
    <desc><![CDATA[comment ...]]></desc>
    <trkseg>
      <trkpt lat="43.44527" lon="6.38232">
        <ele>168</ele>
        <time>2024-12-06T12:43:53Z</time>
      </trkpt>
      <trkpt lat="43.44527" lon="6.38232">
        <ele>168</ele>
        <time>2024-12-06T12:43:55Z</time>
      </trkpt>
      <trkpt lat="43.44526" lon="6.38235">
        <ele>170</ele>
        <time>2024-12-06T12:46:19Z</time>
      </trkpt>
      <trkpt lat="43.44529" lon="6.38239">
        <ele>170</ele>
        <time>2024-12-06T12:46:25Z</time>
      </trkpt>
      <trkpt lat="43.44531" lon="6.38242">
        <ele>165</ele>
        <time>2024-12-06T12:46:27Z</time>
      </trkpt>
      <trkpt lat="43.44533" lon="6.38243">
        <ele>163</ele>
        <time>2024-12-06T12:46:34Z</time>
      </trkpt>
      <trkpt lat="43.44534" lon="6.38244">
        <ele>164</ele>
        <time>2024-12-06T12:47:11Z</time>
      </trkpt>
      <trkpt lat="43.44532" lon="6.38247">
        <ele>165</ele>
        <time>2024-12-06T12:47:43Z</time>
      </trkpt>
      <trkpt lat="43.44529" lon="6.38248">
        <ele>164</ele>
        <time>2024-12-06T12:47:49Z</time>
      </trkpt>
      <trkpt lat="43.44528" lon="6.38256">
        <ele>163</ele>
        <time>2024-12-06T12:47:59Z</time>
      </trkpt>
      <trkpt lat="43.44519" lon="6.38264">
        <ele>160</ele>
        <time>2024-12-06T12:48:12Z</time>
      </trkpt>
      <trkpt lat="43.44517" lon="6.38266">
        <ele>161</ele>
        <time>2024-12-06T12:48:16Z</time>
      </trkpt>
      <trkpt lat="43.44514" lon="6.38267">
        <ele>161</ele>
        <time>2024-12-06T12:48:20Z</time>
      </trkpt>
      <trkpt lat="43.44487" lon="6.38281">
        <ele>160</ele>
        <time>2024-12-06T12:48:52Z</time>
      </trkpt>
      <trkpt lat="43.44482" lon="6.38282">
        <ele>160</ele>
        <time>2024-12-06T12:48:56Z</time>
      </trkpt>
      <trkpt lat="43.4448" lon="6.38284">
        <ele>159</ele>
        <time>2024-12-06T12:49:00Z</time>
      </trkpt>
      <trkpt lat="43.44447" lon="6.38297">
        <ele>161</ele>
        <time>2024-12-06T12:49:33Z</time>
      </trkpt>
      <trkpt lat="43.44439" lon="6.383">
        <ele>162</ele>
        <time>2024-12-06T12:49:41Z</time>
      </trkpt>
      <trkpt lat="43.44436" lon="6.38303">
        <ele>163</ele>
        <time>2024-12-06T12:49:45Z</time>
      </trkpt>
      <trkpt lat="43.44413" lon="6.38314">
        <ele>164</ele>
        <time>2024-12-06T12:50:10Z</time>
      </trkpt>
      <trkpt lat="43.44399" lon="6.3832">
        <ele>165</ele>
        <time>2024-12-06T12:50:23Z</time>
      </trkpt>
      <trkpt lat="43.44393" lon="6.38324">
        <ele>166</ele>
        <time>2024-12-06T12:50:29Z</time>
      </trkpt>
      <trkpt lat="43.44382" lon="6.38328">
        <ele>168</ele>
        <time>2024-12-06T12:50:40Z</time>
      </trkpt>
      <trkpt lat="43.44366" lon="6.38339">
        <ele>168</ele>
        <time>2024-12-06T12:50:56Z</time>
      </trkpt>
      <trkpt lat="43.44362" lon="6.38345">
        <ele>169</ele>
        <time>2024-12-06T12:51:01Z</time>
      </trkpt>
      <trkpt lat="43.44341" lon="6.38379">
        <ele>171</ele>
        <time>2024-12-06T12:51:31Z</time>
      </trkpt>
      <trkpt lat="43.44316" lon="6.38416">
        <ele>171</ele>
        <time>2024-12-06T12:52:04Z</time>
      </trkpt>
      <trkpt lat="43.44302" lon="6.38437">
        <ele>171</ele>
        <time>2024-12-06T12:52:23Z</time>
      </trkpt>
      <trkpt lat="43.44295" lon="6.38442">
        <ele>170</ele>
        <time>2024-12-06T12:52:30Z</time>
      </trkpt>
      <trkpt lat="43.44274" lon="6.38451">
        <ele>170</ele>
        <time>2024-12-06T12:52:49Z</time>
      </trkpt>
      <trkpt lat="43.44269" lon="6.38452">
        <ele>170</ele>
        <time>2024-12-06T12:52:53Z</time>
      </trkpt>
      <trkpt lat="43.44242" lon="6.38463">
        <ele>168</ele>
        <time>2024-12-06T12:53:19Z</time>
      </trkpt>
      <trkpt lat="43.44207" lon="6.3847">
        <ele>167</ele>
        <time>2024-12-06T12:53:50Z</time>
      </trkpt>
      <trkpt lat="43.44171" lon="6.38474">
        <ele>167</ele>
        <time>2024-12-06T12:54:22Z</time>
      </trkpt>
      <trkpt lat="43.44165" lon="6.38475">
        <ele>167</ele>
        <time>2024-12-06T12:54:28Z</time>
      </trkpt>
      <trkpt lat="43.44153" lon="6.38474">
        <ele>166</ele>
        <time>2024-12-06T12:54:40Z</time>
      </trkpt>
      <trkpt lat="43.44141" lon="6.38474">
        <ele>167</ele>
        <time>2024-12-06T12:54:52Z</time>
      </trkpt>
      <trkpt lat="43.44123" lon="6.38473">
        <ele>167</ele>
        <time>2024-12-06T12:55:13Z</time>
      </trkpt>
      <trkpt lat="43.44103" lon="6.38471">
        <ele>167</ele>
        <time>2024-12-06T12:55:30Z</time>
      </trkpt>
      <trkpt lat="43.44099" lon="6.38472">
        <ele>168</ele>
        <time>2024-12-06T12:55:34Z</time>
      </trkpt>
      <trkpt lat="43.44085" lon="6.3847">
        <ele>169</ele>
        <time>2024-12-06T12:55:46Z</time>
      </trkpt>
      <trkpt lat="43.44076" lon="6.38469">
        <ele>171</ele>
        <time>2024-12-06T12:55:54Z</time>
      </trkpt>
      <trkpt lat="43.44043" lon="6.38475">
        <ele>169</ele>
        <time>2024-12-06T12:56:26Z</time>
      </trkpt>
      <trkpt lat="43.44027" lon="6.3848">
        <ele>169</ele>
        <time>2024-12-06T12:56:39Z</time>
      </trkpt>
      <trkpt lat="43.43993" lon="6.38488">
        <ele>166</ele>
        <time>2024-12-06T12:57:11Z</time>
      </trkpt>
      <trkpt lat="43.43966" lon="6.38492">
        <ele>164</ele>
        <time>2024-12-06T12:57:39Z</time>
      </trkpt>
      <trkpt lat="43.43964" lon="6.38493">
        <ele>164</ele>
        <time>2024-12-06T12:57:43Z</time>
      </trkpt>
      <trkpt lat="43.43949" lon="6.38493">
        <ele>161</ele>
        <time>2024-12-06T12:57:58Z</time>
      </trkpt>
      <trkpt lat="43.43937" lon="6.38496">
        <ele>159</ele>
        <time>2024-12-06T12:58:14Z</time>
      </trkpt>
      <trkpt lat="43.43934" lon="6.38497">
        <ele>159</ele>
        <time>2024-12-06T12:58:18Z</time>
      </trkpt>
      <trkpt lat="43.43927" lon="6.38497">
        <ele>158</ele>
        <time>2024-12-06T12:58:25Z</time>
      </trkpt>
      <trkpt lat="43.43908" lon="6.38504">
        <ele>155</ele>
        <time>2024-12-06T12:58:48Z</time>
      </trkpt>
      <trkpt lat="43.43889" lon="6.38503">
        <ele>152</ele>
        <time>2024-12-06T12:59:08Z</time>
      </trkpt>
      <trkpt lat="43.43878" lon="6.38503">
        <ele>151</ele>
        <time>2024-12-06T12:59:18Z</time>
      </trkpt>
      <trkpt lat="43.43874" lon="6.38502">
        <ele>151</ele>
        <time>2024-12-06T12:59:22Z</time>
      </trkpt>
      <trkpt lat="43.4387" lon="6.38503">
        <ele>151</ele>
        <time>2024-12-06T12:59:26Z</time>
      </trkpt>
      <trkpt lat="43.43865" lon="6.38503">
        <ele>151</ele>
        <time>2024-12-06T12:59:30Z</time>
      </trkpt>
      <trkpt lat="43.43862" lon="6.38505">
        <ele>151</ele>
        <time>2024-12-06T12:59:34Z</time>
      </trkpt>
      <trkpt lat="43.43862" lon="6.38508">
        <ele>151</ele>
        <time>2024-12-06T12:59:40Z</time>
      </trkpt>
      <trkpt lat="43.43861" lon="6.38512">
        <ele>150</ele>
        <time>2024-12-06T12:59:46Z</time>
      </trkpt>
      <trkpt lat="43.43859" lon="6.38513">
        <ele>150</ele>
        <time>2024-12-06T12:59:50Z</time>
      </trkpt>
      <trkpt lat="43.43859" lon="6.3851">
        <ele>150</ele>
        <time>2024-12-06T12:59:54Z</time>
      </trkpt>
      <trkpt lat="43.43855" lon="6.3851">
        <ele>148</ele>
        <time>2024-12-06T13:02:41Z</time>
      </trkpt>
      <trkpt lat="43.43852" lon="6.3851">
        <ele>149</ele>
        <time>2024-12-06T13:02:45Z</time>
      </trkpt>
      <trkpt lat="43.43849" lon="6.38512">
        <ele>149</ele>
        <time>2024-12-06T13:02:47Z</time>
      </trkpt>
      <trkpt lat="43.43819" lon="6.38513">
        <ele>151</ele>
        <time>2024-12-06T13:03:19Z</time>
      </trkpt>
      <trkpt lat="43.43808" lon="6.38513">
        <ele>152</ele>
        <time>2024-12-06T13:03:33Z</time>
      </trkpt>
      <trkpt lat="43.43805" lon="6.38513">
        <ele>153</ele>
        <time>2024-12-06T13:03:37Z</time>
      </trkpt>
      <trkpt lat="43.43792" lon="6.38517">
        <ele>153</ele>
        <time>2024-12-06T13:03:53Z</time>
      </trkpt>
      <trkpt lat="43.43787" lon="6.38517">
        <ele>153</ele>
        <time>2024-12-06T13:03:57Z</time>
      </trkpt>
      <trkpt lat="43.43784" lon="6.38517">
        <ele>153</ele>
        <time>2024-12-06T13:04:01Z</time>
      </trkpt>
      <trkpt lat="43.43763" lon="6.38521">
        <ele>154</ele>
        <time>2024-12-06T13:04:25Z</time>
      </trkpt>
      <trkpt lat="43.43742" lon="6.38522">
        <ele>156</ele>
        <time>2024-12-06T13:04:52Z</time>
      </trkpt>
      <trkpt lat="43.43735" lon="6.38524">
        <ele>156</ele>
        <time>2024-12-06T13:04:59Z</time>
      </trkpt>
      <trkpt lat="43.43727" lon="6.38524">
        <ele>157</ele>
        <time>2024-12-06T13:05:09Z</time>
      </trkpt>
      <trkpt lat="43.43713" lon="6.38524">
        <ele>159</ele>
        <time>2024-12-06T13:05:24Z</time>
      </trkpt>
      <trkpt lat="43.43709" lon="6.38524">
        <ele>159</ele>
        <time>2024-12-06T13:05:28Z</time>
      </trkpt>
      <trkpt lat="43.43705" lon="6.38524">
        <ele>160</ele>
        <time>2024-12-06T13:05:32Z</time>
      </trkpt>
      <trkpt lat="43.43697" lon="6.38523">
        <ele>161</ele>
        <time>2024-12-06T13:05:41Z</time>
      </trkpt>
      <trkpt lat="43.43692" lon="6.38523">
        <ele>162</ele>
        <time>2024-12-06T13:05:46Z</time>
      </trkpt>
      <trkpt lat="43.43689" lon="6.38522">
        <ele>163</ele>
        <time>2024-12-06T13:05:50Z</time>
      </trkpt>
      <trkpt lat="43.43667" lon="6.38522">
        <ele>166</ele>
        <time>2024-12-06T13:06:12Z</time>
      </trkpt>
      <trkpt lat="43.43661" lon="6.38522">
        <ele>168</ele>
        <time>2024-12-06T13:06:20Z</time>
      </trkpt>
      <trkpt lat="43.43643" lon="6.3852">
        <ele>170</ele>
        <time>2024-12-06T13:06:42Z</time>
      </trkpt>
      <trkpt lat="43.4364" lon="6.3852">
        <ele>171</ele>
        <time>2024-12-06T13:06:46Z</time>
      </trkpt>
      <trkpt lat="43.43613" lon="6.38518">
        <ele>174</ele>
        <time>2024-12-06T13:07:18Z</time>
      </trkpt>
      <trkpt lat="43.43612" lon="6.38514">
        <ele>173</ele>
        <time>2024-12-06T13:07:24Z</time>
      </trkpt>
      <trkpt lat="43.43586" lon="6.38513">
        <ele>174</ele>
        <time>2024-12-06T13:07:51Z</time>
      </trkpt>
      <trkpt lat="43.43582" lon="6.38513">
        <ele>174</ele>
        <time>2024-12-06T13:07:55Z</time>
      </trkpt>
      <trkpt lat="43.43575" lon="6.38514">
        <ele>175</ele>
        <time>2024-12-06T13:08:03Z</time>
      </trkpt>
      <trkpt lat="43.4357" lon="6.38513">
        <ele>174</ele>
        <time>2024-12-06T13:08:09Z</time>
      </trkpt>
      <trkpt lat="43.43562" lon="6.38513">
        <ele>174</ele>
        <time>2024-12-06T13:08:17Z</time>
      </trkpt>
      <trkpt lat="43.43559" lon="6.38513">
        <ele>174</ele>
        <time>2024-12-06T13:08:20Z</time>
      </trkpt>
      <trkpt lat="43.43541" lon="6.38515">
        <ele>177</ele>
        <time>2024-12-06T13:08:38Z</time>
      </trkpt>
      <trkpt lat="43.43534" lon="6.38514">
        <ele>178</ele>
        <time>2024-12-06T13:08:46Z</time>
      </trkpt>
      <trkpt lat="43.43499" lon="6.38512">
        <ele>179</ele>
        <time>2024-12-06T13:09:20Z</time>
      </trkpt>
      <trkpt lat="43.43468" lon="6.38509">
        <ele>180</ele>
        <time>2024-12-06T13:09:51Z</time>
      </trkpt>
      <trkpt lat="43.43455" lon="6.38508">
        <ele>181</ele>
        <time>2024-12-06T13:10:05Z</time>
      </trkpt>
      <trkpt lat="43.4344" lon="6.3851">
        <ele>182</ele>
        <time>2024-12-06T13:10:20Z</time>
      </trkpt>
      <trkpt lat="43.4342" lon="6.38522">
        <ele>179</ele>
        <time>2024-12-06T13:10:44Z</time>
      </trkpt>
      <trkpt lat="43.43407" lon="6.38538">
        <ele>177</ele>
        <time>2024-12-06T13:11:00Z</time>
      </trkpt>
      <trkpt lat="43.43406" lon="6.3854">
        <ele>177</ele>
        <time>2024-12-06T13:11:02Z</time>
      </trkpt>
      <trkpt lat="43.43381" lon="6.38567">
        <ele>175</ele>
        <time>2024-12-06T13:11:32Z</time>
      </trkpt>
      <trkpt lat="43.43362" lon="6.38592">
        <ele>171</ele>
        <time>2024-12-06T13:11:58Z</time>
      </trkpt>
      <trkpt lat="43.43359" lon="6.38594">
        <ele>171</ele>
        <time>2024-12-06T13:12:02Z</time>
      </trkpt>
      <trkpt lat="43.43343" lon="6.38611">
        <ele>170</ele>
        <time>2024-12-06T13:12:22Z</time>
      </trkpt>
      <trkpt lat="43.43334" lon="6.38619">
        <ele>169</ele>
        <time>2024-12-06T13:12:32Z</time>
      </trkpt>
      <trkpt lat="43.4333" lon="6.38619">
        <ele>170</ele>
        <time>2024-12-06T13:12:36Z</time>
      </trkpt>
      <trkpt lat="43.43316" lon="6.38613">
        <ele>169</ele>
        <time>2024-12-06T13:12:49Z</time>
      </trkpt>
      <trkpt lat="43.43297" lon="6.38588">
        <ele>167</ele>
        <time>2024-12-06T13:13:15Z</time>
      </trkpt>
      <trkpt lat="43.43283" lon="6.3857">
        <ele>165</ele>
        <time>2024-12-06T13:13:40Z</time>
      </trkpt>
      <trkpt lat="43.43281" lon="6.38566">
        <ele>167</ele>
        <time>2024-12-06T13:15:30Z</time>
      </trkpt>
      <trkpt lat="43.4328" lon="6.38562">
        <ele>166</ele>
        <time>2024-12-06T13:15:36Z</time>
      </trkpt>
      <trkpt lat="43.43278" lon="6.38558">
        <ele>166</ele>
        <time>2024-12-06T13:15:40Z</time>
      </trkpt>
      <trkpt lat="43.43276" lon="6.38551">
        <ele>165</ele>
        <time>2024-12-06T13:15:48Z</time>
      </trkpt>
      <trkpt lat="43.43275" lon="6.38548">
        <ele>164</ele>
        <time>2024-12-06T13:15:52Z</time>
      </trkpt>
      <trkpt lat="43.43272" lon="6.38532">
        <ele>164</ele>
        <time>2024-12-06T13:16:12Z</time>
      </trkpt>
      <trkpt lat="43.43271" lon="6.38527">
        <ele>163</ele>
        <time>2024-12-06T13:16:19Z</time>
      </trkpt>
      <trkpt lat="43.43269" lon="6.38519">
        <ele>161</ele>
        <time>2024-12-06T13:16:34Z</time>
      </trkpt>
      <trkpt lat="43.43268" lon="6.38516">
        <ele>161</ele>
        <time>2024-12-06T13:16:38Z</time>
      </trkpt>
      <trkpt lat="43.43268" lon="6.38512">
        <ele>160</ele>
        <time>2024-12-06T13:16:44Z</time>
      </trkpt>
      <trkpt lat="43.43267" lon="6.38507">
        <ele>158</ele>
        <time>2024-12-06T13:16:51Z</time>
      </trkpt>
      <trkpt lat="43.43268" lon="6.38502">
        <ele>156</ele>
        <time>2024-12-06T13:16:57Z</time>
      </trkpt>
      <trkpt lat="43.43268" lon="6.38493">
        <ele>153</ele>
        <time>2024-12-06T13:17:08Z</time>
      </trkpt>
      <trkpt lat="43.43268" lon="6.3849">
        <ele>152</ele>
        <time>2024-12-06T13:17:16Z</time>
      </trkpt>
      <trkpt lat="43.43267" lon="6.38481">
        <ele>150</ele>
        <time>2024-12-06T13:17:32Z</time>
      </trkpt>
      <trkpt lat="43.43268" lon="6.38477">
        <ele>149</ele>
        <time>2024-12-06T13:17:37Z</time>
      </trkpt>
      <trkpt lat="43.43272" lon="6.3846">
        <ele>145</ele>
        <time>2024-12-06T13:18:03Z</time>
      </trkpt>
      <trkpt lat="43.43276" lon="6.38446">
        <ele>142</ele>
        <time>2024-12-06T13:18:21Z</time>
      </trkpt>
      <trkpt lat="43.43281" lon="6.38433">
        <ele>142</ele>
        <time>2024-12-06T13:18:40Z</time>
      </trkpt>
      <trkpt lat="43.43282" lon="6.3843">
        <ele>141</ele>
        <time>2024-12-06T13:18:44Z</time>
      </trkpt>
      <trkpt lat="43.43285" lon="6.38421">
        <ele>141</ele>
        <time>2024-12-06T13:18:55Z</time>
      </trkpt>
      <trkpt lat="43.43285" lon="6.38417">
        <ele>140</ele>
        <time>2024-12-06T13:19:01Z</time>
      </trkpt>
      <trkpt lat="43.43284" lon="6.38414">
        <ele>141</ele>
        <time>2024-12-06T13:19:05Z</time>
      </trkpt>
      <trkpt lat="43.43282" lon="6.38411">
        <ele>141</ele>
        <time>2024-12-06T13:19:12Z</time>
      </trkpt>
      <trkpt lat="43.43281" lon="6.38408">
        <ele>144</ele>
        <time>2024-12-06T13:19:18Z</time>
      </trkpt>
      <trkpt lat="43.43279" lon="6.38404">
        <ele>145</ele>
        <time>2024-12-06T13:19:28Z</time>
      </trkpt>
      <trkpt lat="43.43276" lon="6.38402">
        <ele>144</ele>
        <time>2024-12-06T13:19:34Z</time>
      </trkpt>
      <trkpt lat="43.43267" lon="6.384">
        <ele>142</ele>
        <time>2024-12-06T13:19:54Z</time>
      </trkpt>
      <trkpt lat="43.43251" lon="6.384">
        <ele>143</ele>
        <time>2024-12-06T13:20:15Z</time>
      </trkpt>
      <trkpt lat="43.43244" lon="6.38399">
        <ele>143</ele>
        <time>2024-12-06T13:20:27Z</time>
      </trkpt>
      <trkpt lat="43.43236" lon="6.38401">
        <ele>143</ele>
        <time>2024-12-06T13:20:39Z</time>
      </trkpt>
      <trkpt lat="43.43232" lon="6.38402">
        <ele>142</ele>
        <time>2024-12-06T13:20:45Z</time>
      </trkpt>
      <trkpt lat="43.43228" lon="6.38404">
        <ele>140</ele>
        <time>2024-12-06T13:20:57Z</time>
      </trkpt>
      <trkpt lat="43.43224" lon="6.38405">
        <ele>140</ele>
        <time>2024-12-06T13:21:03Z</time>
      </trkpt>
      <trkpt lat="43.43223" lon="6.38407">
        <ele>140</ele>
        <time>2024-12-06T13:21:05Z</time>
      </trkpt>
      <trkpt lat="43.43205" lon="6.38419">
        <ele>138</ele>
        <time>2024-12-06T13:21:36Z</time>
      </trkpt>
      <trkpt lat="43.43195" lon="6.38428">
        <ele>137</ele>
        <time>2024-12-06T13:21:52Z</time>
      </trkpt>
      <trkpt lat="43.43188" lon="6.38439">
        <ele>136</ele>
        <time>2024-12-06T13:22:08Z</time>
      </trkpt>
      <trkpt lat="43.43184" lon="6.38439">
        <ele>135</ele>
        <time>2024-12-06T13:22:14Z</time>
      </trkpt>
      <trkpt lat="43.43178" lon="6.38441">
        <ele>132</ele>
        <time>2024-12-06T13:22:26Z</time>
      </trkpt>
      <trkpt lat="43.43175" lon="6.38439">
        <ele>132</ele>
        <time>2024-12-06T13:22:31Z</time>
      </trkpt>
      <trkpt lat="43.4317" lon="6.38432">
        <ele>131</ele>
        <time>2024-12-06T13:22:39Z</time>
      </trkpt>
      <trkpt lat="43.43162" lon="6.38423">
        <ele>128</ele>
        <time>2024-12-06T13:22:51Z</time>
      </trkpt>
      <trkpt lat="43.43156" lon="6.38417">
        <ele>127</ele>
        <time>2024-12-06T13:23:00Z</time>
      </trkpt>
      <trkpt lat="43.43154" lon="6.38413">
        <ele>126</ele>
        <time>2024-12-06T13:23:04Z</time>
      </trkpt>
      <trkpt lat="43.43147" lon="6.38402">
        <ele>124</ele>
        <time>2024-12-06T13:23:16Z</time>
      </trkpt>
      <trkpt lat="43.43144" lon="6.38398">
        <ele>123</ele>
        <time>2024-12-06T13:23:20Z</time>
      </trkpt>
      <trkpt lat="43.43139" lon="6.38393">
        <ele>122</ele>
        <time>2024-12-06T13:23:28Z</time>
      </trkpt>
      <trkpt lat="43.43136" lon="6.38392">
        <ele>121</ele>
        <time>2024-12-06T13:23:32Z</time>
      </trkpt>
      <trkpt lat="43.43132" lon="6.38387">
        <ele>120</ele>
        <time>2024-12-06T13:23:37Z</time>
      </trkpt>
      <trkpt lat="43.4313" lon="6.38384">
        <ele>120</ele>
        <time>2024-12-06T13:23:42Z</time>
      </trkpt>
      <trkpt lat="43.43129" lon="6.38381">
        <ele>120</ele>
        <time>2024-12-06T13:23:56Z</time>
      </trkpt>
      <trkpt lat="43.43127" lon="6.38378">
        <ele>119</ele>
        <time>2024-12-06T13:24:00Z</time>
      </trkpt>
      <trkpt lat="43.43124" lon="6.38374">
        <ele>118</ele>
        <time>2024-12-06T13:24:05Z</time>
      </trkpt>
      <trkpt lat="43.43122" lon="6.38371">
        <ele>118</ele>
        <time>2024-12-06T13:24:09Z</time>
      </trkpt>
      <trkpt lat="43.43115" lon="6.38364">
        <ele>118</ele>
        <time>2024-12-06T13:24:18Z</time>
      </trkpt>
      <trkpt lat="43.43113" lon="6.38361">
        <ele>118</ele>
        <time>2024-12-06T13:24:21Z</time>
      </trkpt>
      <trkpt lat="43.4311" lon="6.38356">
        <ele>117</ele>
        <time>2024-12-06T13:24:26Z</time>
      </trkpt>
      <trkpt lat="43.43085" lon="6.38325">
        <ele>114</ele>
        <time>2024-12-06T13:24:58Z</time>
      </trkpt>
      <trkpt lat="43.43082" lon="6.38322">
        <ele>114</ele>
        <time>2024-12-06T13:25:02Z</time>
      </trkpt>
      <trkpt lat="43.43079" lon="6.38317">
        <ele>114</ele>
        <time>2024-12-06T13:25:08Z</time>
      </trkpt>
      <trkpt lat="43.4307" lon="6.38307">
        <ele>114</ele>
        <time>2024-12-06T13:25:20Z</time>
      </trkpt>
      <trkpt lat="43.43048" lon="6.38279">
        <ele>116</ele>
        <time>2024-12-06T13:25:47Z</time>
      </trkpt>
      <trkpt lat="43.43032" lon="6.38265">
        <ele>118</ele>
        <time>2024-12-06T13:26:08Z</time>
      </trkpt>
      <trkpt lat="43.43028" lon="6.38264">
        <ele>118</ele>
        <time>2024-12-06T13:26:12Z</time>
      </trkpt>
      <trkpt lat="43.43019" lon="6.38259">
        <ele>119</ele>
        <time>2024-12-06T13:26:24Z</time>
      </trkpt>
      <trkpt lat="43.43015" lon="6.38259">
        <ele>119</ele>
        <time>2024-12-06T13:26:29Z</time>
      </trkpt>
      <trkpt lat="43.43013" lon="6.38257">
        <ele>118</ele>
        <time>2024-12-06T13:26:42Z</time>
      </trkpt>
      <trkpt lat="43.4301" lon="6.38255">
        <ele>117</ele>
        <time>2024-12-06T13:26:48Z</time>
      </trkpt>
      <trkpt lat="43.43004" lon="6.38253">
        <ele>115</ele>
        <time>2024-12-06T13:26:58Z</time>
      </trkpt>
      <trkpt lat="43.42994" lon="6.38247">
        <ele>115</ele>
        <time>2024-12-06T13:27:11Z</time>
      </trkpt>
      <trkpt lat="43.42992" lon="6.38246">
        <ele>115</ele>
        <time>2024-12-06T13:27:13Z</time>
      </trkpt>
      <trkpt lat="43.42986" lon="6.38244">
        <ele>114</ele>
        <time>2024-12-06T13:27:20Z</time>
      </trkpt>
      <trkpt lat="43.42983" lon="6.38242">
        <ele>113</ele>
        <time>2024-12-06T13:27:24Z</time>
      </trkpt>
      <trkpt lat="43.42969" lon="6.38234">
        <ele>112</ele>
        <time>2024-12-06T13:27:41Z</time>
      </trkpt>
      <trkpt lat="43.42964" lon="6.38233">
        <ele>111</ele>
        <time>2024-12-06T13:27:46Z</time>
      </trkpt>
      <trkpt lat="43.42961" lon="6.38231">
        <ele>111</ele>
        <time>2024-12-06T13:27:50Z</time>
      </trkpt>
      <trkpt lat="43.42957" lon="6.38229">
        <ele>110</ele>
        <time>2024-12-06T13:27:54Z</time>
      </trkpt>
      <trkpt lat="43.42941" lon="6.38221">
        <ele>110</ele>
        <time>2024-12-06T13:28:15Z</time>
      </trkpt>
      <trkpt lat="43.42926" lon="6.38214">
        <ele>108</ele>
        <time>2024-12-06T13:28:31Z</time>
      </trkpt>
      <trkpt lat="43.42921" lon="6.38212">
        <ele>108</ele>
        <time>2024-12-06T13:28:36Z</time>
      </trkpt>
      <trkpt lat="43.42907" lon="6.38205">
        <ele>106</ele>
        <time>2024-12-06T13:28:50Z</time>
      </trkpt>
      <trkpt lat="43.42898" lon="6.38203">
        <ele>106</ele>
        <time>2024-12-06T13:28:58Z</time>
      </trkpt>
      <trkpt lat="43.42884" lon="6.38206">
        <ele>106</ele>
        <time>2024-12-06T13:29:12Z</time>
      </trkpt>
      <trkpt lat="43.42881" lon="6.38209">
        <ele>105</ele>
        <time>2024-12-06T13:29:16Z</time>
      </trkpt>
      <trkpt lat="43.42854" lon="6.38222">
        <ele>107</ele>
        <time>2024-12-06T13:29:47Z</time>
      </trkpt>
      <trkpt lat="43.42846" lon="6.38225">
        <ele>107</ele>
        <time>2024-12-06T13:29:55Z</time>
      </trkpt>
      <trkpt lat="43.4284" lon="6.38227">
        <ele>108</ele>
        <time>2024-12-06T13:30:05Z</time>
      </trkpt>
      <trkpt lat="43.42823" lon="6.38235">
        <ele>109</ele>
        <time>2024-12-06T13:30:35Z</time>
      </trkpt>
      <trkpt lat="43.42821" lon="6.38237">
        <ele>109</ele>
        <time>2024-12-06T13:30:39Z</time>
      </trkpt>
      <trkpt lat="43.42803" lon="6.38245">
        <ele>105</ele>
        <time>2024-12-06T13:31:02Z</time>
      </trkpt>
      <trkpt lat="43.42793" lon="6.38248">
        <ele>105</ele>
        <time>2024-12-06T13:31:10Z</time>
      </trkpt>
      <trkpt lat="43.42787" lon="6.38253">
        <ele>104</ele>
        <time>2024-12-06T13:31:18Z</time>
      </trkpt>
      <trkpt lat="43.42785" lon="6.38256">
        <ele>104</ele>
        <time>2024-12-06T13:31:22Z</time>
      </trkpt>
      <trkpt lat="43.42775" lon="6.38268">
        <ele>105</ele>
        <time>2024-12-06T13:31:36Z</time>
      </trkpt>
      <trkpt lat="43.42774" lon="6.38271">
        <ele>104</ele>
        <time>2024-12-06T13:34:52Z</time>
      </trkpt>
      <trkpt lat="43.42754" lon="6.38308">
        <ele>108</ele>
        <time>2024-12-06T13:35:24Z</time>
      </trkpt>
      <trkpt lat="43.42733" lon="6.38344">
        <ele>108</ele>
        <time>2024-12-06T13:35:54Z</time>
      </trkpt>
      <trkpt lat="43.42731" lon="6.3835">
        <ele>108</ele>
        <time>2024-12-06T13:35:58Z</time>
      </trkpt>
      <trkpt lat="43.42716" lon="6.38369">
        <ele>108</ele>
        <time>2024-12-06T13:36:16Z</time>
      </trkpt>
      <trkpt lat="43.42698" lon="6.38378">
        <ele>106</ele>
        <time>2024-12-06T13:36:34Z</time>
      </trkpt>
      <trkpt lat="43.42674" lon="6.38383">
        <ele>107</ele>
        <time>2024-12-06T13:36:54Z</time>
      </trkpt>
      <trkpt lat="43.42666" lon="6.38382">
        <ele>106</ele>
        <time>2024-12-06T13:37:02Z</time>
      </trkpt>
      <trkpt lat="43.42663" lon="6.38382">
        <ele>105</ele>
        <time>2024-12-06T13:37:07Z</time>
      </trkpt>
      <trkpt lat="43.42659" lon="6.38382">
        <ele>106</ele>
        <time>2024-12-06T13:37:11Z</time>
      </trkpt>
      <trkpt lat="43.4265" lon="6.38381">
        <ele>104</ele>
        <time>2024-12-06T13:37:19Z</time>
      </trkpt>
      <trkpt lat="43.42641" lon="6.38379">
        <ele>103</ele>
        <time>2024-12-06T13:37:28Z</time>
      </trkpt>
      <trkpt lat="43.42628" lon="6.3838">
        <ele>102</ele>
        <time>2024-12-06T13:37:40Z</time>
      </trkpt>
      <trkpt lat="43.42607" lon="6.38392">
        <ele>101</ele>
        <time>2024-12-06T13:38:02Z</time>
      </trkpt>
      <trkpt lat="43.42575" lon="6.38404">
        <ele>100</ele>
        <time>2024-12-06T13:38:34Z</time>
      </trkpt>
      <trkpt lat="43.4257" lon="6.38404">
        <ele>100</ele>
        <time>2024-12-06T13:38:38Z</time>
      </trkpt>
      <trkpt lat="43.42567" lon="6.38404">
        <ele>99</ele>
        <time>2024-12-06T13:38:41Z</time>
      </trkpt>
      <trkpt lat="43.42564" lon="6.38401">
        <ele>98</ele>
        <time>2024-12-06T13:38:45Z</time>
      </trkpt>
      <trkpt lat="43.42559" lon="6.38403">
        <ele>96</ele>
        <time>2024-12-06T13:39:04Z</time>
      </trkpt>
      <trkpt lat="43.42553" lon="6.38404">
        <ele>95</ele>
        <time>2024-12-06T13:39:10Z</time>
      </trkpt>
      <trkpt lat="43.42539" lon="6.38408">
        <ele>96</ele>
        <time>2024-12-06T13:39:25Z</time>
      </trkpt>
      <trkpt lat="43.42532" lon="6.38414">
        <ele>96</ele>
        <time>2024-12-06T13:39:33Z</time>
      </trkpt>
      <trkpt lat="43.42529" lon="6.38413">
        <ele>96</ele>
        <time>2024-12-06T13:39:36Z</time>
      </trkpt>
      <trkpt lat="43.42527" lon="6.38409">
        <ele>96</ele>
        <time>2024-12-06T13:39:40Z</time>
      </trkpt>
      <trkpt lat="43.42528" lon="6.38406">
        <ele>96</ele>
        <time>2024-12-06T13:39:42Z</time>
      </trkpt>
      <trkpt lat="43.42546" lon="6.38385">
        <ele>87</ele>
        <time>2024-12-06T13:40:09Z</time>
      </trkpt>
      <trkpt lat="43.42548" lon="6.38383">
        <ele>86</ele>
        <time>2024-12-06T13:40:13Z</time>
      </trkpt>
      <trkpt lat="43.42555" lon="6.38376">
        <ele>84</ele>
        <time>2024-12-06T13:40:21Z</time>
      </trkpt>
      <trkpt lat="43.42568" lon="6.38348">
        <ele>81</ele>
        <time>2024-12-06T13:40:47Z</time>
      </trkpt>
      <trkpt lat="43.42569" lon="6.38343">
        <ele>80</ele>
        <time>2024-12-06T13:40:51Z</time>
      </trkpt>
      <trkpt lat="43.42572" lon="6.38337">
        <ele>79</ele>
        <time>2024-12-06T13:40:55Z</time>
      </trkpt>
      <trkpt lat="43.42581" lon="6.38315">
        <ele>78</ele>
        <time>2024-12-06T13:41:13Z</time>
      </trkpt>
      <trkpt lat="43.42584" lon="6.38308">
        <ele>77</ele>
        <time>2024-12-06T13:41:19Z</time>
      </trkpt>
      <trkpt lat="43.42588" lon="6.38297">
        <ele>76</ele>
        <time>2024-12-06T13:41:27Z</time>
      </trkpt>
      <trkpt lat="43.42589" lon="6.38293">
        <ele>76</ele>
        <time>2024-12-06T13:41:31Z</time>
      </trkpt>
      <trkpt lat="43.42597" lon="6.38269">
        <ele>72</ele>
        <time>2024-12-06T13:41:49Z</time>
      </trkpt>
      <trkpt lat="43.42598" lon="6.38264">
        <ele>72</ele>
        <time>2024-12-06T13:41:53Z</time>
      </trkpt>
      <trkpt lat="43.42601" lon="6.38255">
        <ele>70</ele>
        <time>2024-12-06T13:42:01Z</time>
      </trkpt>
      <trkpt lat="43.42605" lon="6.3824">
        <ele>68</ele>
        <time>2024-12-06T13:42:15Z</time>
      </trkpt>
      <trkpt lat="43.42606" lon="6.38235">
        <ele>67</ele>
        <time>2024-12-06T13:42:19Z</time>
      </trkpt>
      <trkpt lat="43.42606" lon="6.3823">
        <ele>66</ele>
        <time>2024-12-06T13:42:23Z</time>
      </trkpt>
      <trkpt lat="43.42607" lon="6.38225">
        <ele>65</ele>
        <time>2024-12-06T13:42:27Z</time>
      </trkpt>
      <trkpt lat="43.42607" lon="6.38222">
        <ele>65</ele>
        <time>2024-12-06T13:42:29Z</time>
      </trkpt>
      <trkpt lat="43.42601" lon="6.38204">
        <ele>64</ele>
        <time>2024-12-06T13:42:47Z</time>
      </trkpt>
      <trkpt lat="43.42599" lon="6.38201">
        <ele>64</ele>
        <time>2024-12-06T13:42:51Z</time>
      </trkpt>
      <trkpt lat="43.42597" lon="6.382">
        <ele>65</ele>
        <time>2024-12-06T13:42:55Z</time>
      </trkpt>
      <trkpt lat="43.42587" lon="6.38195">
        <ele>69</ele>
        <time>2024-12-06T13:43:05Z</time>
      </trkpt>
      <trkpt lat="43.42579" lon="6.38193">
        <ele>70</ele>
        <time>2024-12-06T13:43:13Z</time>
      </trkpt>
      <trkpt lat="43.42572" lon="6.38192">
        <ele>71</ele>
        <time>2024-12-06T13:43:23Z</time>
      </trkpt>
      <trkpt lat="43.42569" lon="6.38191">
        <ele>71</ele>
        <time>2024-12-06T13:43:47Z</time>
      </trkpt>
      <trkpt lat="43.42567" lon="6.38188">
        <ele>72</ele>
        <time>2024-12-06T13:44:01Z</time>
      </trkpt>
      <trkpt lat="43.42562" lon="6.38188">
        <ele>72</ele>
        <time>2024-12-06T13:44:08Z</time>
      </trkpt>
      <trkpt lat="43.42555" lon="6.38191">
        <ele>73</ele>
        <time>2024-12-06T13:44:36Z</time>
      </trkpt>
      <trkpt lat="43.42548" lon="6.38196">
        <ele>72</ele>
        <time>2024-12-06T13:44:44Z</time>
      </trkpt>
      <trkpt lat="43.42544" lon="6.38197">
        <ele>71</ele>
        <time>2024-12-06T13:44:48Z</time>
      </trkpt>
      <trkpt lat="43.42539" lon="6.38199">
        <ele>70</ele>
        <time>2024-12-06T13:44:53Z</time>
      </trkpt>
      <trkpt lat="43.42515" lon="6.38214">
        <ele>70</ele>
        <time>2024-12-06T13:45:17Z</time>
      </trkpt>
      <trkpt lat="43.42512" lon="6.38217">
        <ele>70</ele>
        <time>2024-12-06T13:45:21Z</time>
      </trkpt>
      <trkpt lat="43.42484" lon="6.38235">
        <ele>68</ele>
        <time>2024-12-06T13:45:51Z</time>
      </trkpt>
      <trkpt lat="43.42481" lon="6.38237">
        <ele>69</ele>
        <time>2024-12-06T13:45:55Z</time>
      </trkpt>
      <trkpt lat="43.42478" lon="6.38239">
        <ele>69</ele>
        <time>2024-12-06T13:45:59Z</time>
      </trkpt>
      <trkpt lat="43.42475" lon="6.3824">
        <ele>69</ele>
        <time>2024-12-06T13:46:03Z</time>
      </trkpt>
      <trkpt lat="43.4247" lon="6.38239">
        <ele>69</ele>
        <time>2024-12-06T13:46:09Z</time>
      </trkpt>
      <trkpt lat="43.42467" lon="6.38237">
        <ele>67</ele>
        <time>2024-12-06T13:46:14Z</time>
      </trkpt>
      <trkpt lat="43.42464" lon="6.38239">
        <ele>67</ele>
        <time>2024-12-06T13:46:18Z</time>
      </trkpt>
      <trkpt lat="43.4246" lon="6.38242">
        <ele>68</ele>
        <time>2024-12-06T13:46:22Z</time>
      </trkpt>
      <trkpt lat="43.42453" lon="6.38242">
        <ele>68</ele>
        <time>2024-12-06T13:46:29Z</time>
      </trkpt>
      <trkpt lat="43.42449" lon="6.38241">
        <ele>67</ele>
        <time>2024-12-06T13:46:36Z</time>
      </trkpt>
      <trkpt lat="43.42432" lon="6.38249">
        <ele>64</ele>
        <time>2024-12-06T13:47:00Z</time>
      </trkpt>
      <trkpt lat="43.42428" lon="6.38251">
        <ele>65</ele>
        <time>2024-12-06T13:47:04Z</time>
      </trkpt>
      <trkpt lat="43.42417" lon="6.38258">
        <ele>67</ele>
        <time>2024-12-06T13:47:26Z</time>
      </trkpt>
      <trkpt lat="43.42413" lon="6.38261">
        <ele>67</ele>
        <time>2024-12-06T13:47:31Z</time>
      </trkpt>
      <trkpt lat="43.42405" lon="6.38265">
        <ele>68</ele>
        <time>2024-12-06T13:47:39Z</time>
      </trkpt>
      <trkpt lat="43.42382" lon="6.38274">
        <ele>70</ele>
        <time>2024-12-06T13:48:04Z</time>
      </trkpt>
      <trkpt lat="43.42378" lon="6.38275">
        <ele>70</ele>
        <time>2024-12-06T13:48:09Z</time>
      </trkpt>
      <trkpt lat="43.42375" lon="6.38276">
        <ele>70</ele>
        <time>2024-12-06T13:48:12Z</time>
      </trkpt>
      <trkpt lat="43.42368" lon="6.38282">
        <ele>70</ele>
        <time>2024-12-06T13:48:20Z</time>
      </trkpt>
      <trkpt lat="43.42367" lon="6.38287">
        <ele>70</ele>
        <time>2024-12-06T13:48:24Z</time>
      </trkpt>
      <trkpt lat="43.42368" lon="6.38312">
        <ele>67</ele>
        <time>2024-12-06T13:48:41Z</time>
      </trkpt>
      <trkpt lat="43.42373" lon="6.38324">
        <ele>65</ele>
        <time>2024-12-06T13:48:52Z</time>
      </trkpt>
      <trkpt lat="43.42375" lon="6.38328">
        <ele>65</ele>
        <time>2024-12-06T13:48:56Z</time>
      </trkpt>
      <trkpt lat="43.42377" lon="6.38331">
        <ele>64</ele>
        <time>2024-12-06T13:49:00Z</time>
      </trkpt>
      <trkpt lat="43.42381" lon="6.3834">
        <ele>62</ele>
        <time>2024-12-06T13:49:07Z</time>
      </trkpt>
      <trkpt lat="43.42383" lon="6.38345">
        <ele>62</ele>
        <time>2024-12-06T13:49:11Z</time>
      </trkpt>
      <trkpt lat="43.42384" lon="6.38349">
        <ele>62</ele>
        <time>2024-12-06T13:49:15Z</time>
      </trkpt>
      <trkpt lat="43.42385" lon="6.38355">
        <ele>61</ele>
        <time>2024-12-06T13:49:19Z</time>
      </trkpt>
      <trkpt lat="43.42383" lon="6.38364">
        <ele>60</ele>
        <time>2024-12-06T13:49:31Z</time>
      </trkpt>
      <trkpt lat="43.4238" lon="6.38369">
        <ele>59</ele>
        <time>2024-12-06T13:49:35Z</time>
      </trkpt>
      <trkpt lat="43.42374" lon="6.38379">
        <ele>58</ele>
        <time>2024-12-06T13:49:43Z</time>
      </trkpt>
      <trkpt lat="43.42367" lon="6.38386">
        <ele>58</ele>
        <time>2024-12-06T13:49:51Z</time>
      </trkpt>
      <trkpt lat="43.42351" lon="6.38391">
        <ele>61</ele>
        <time>2024-12-06T13:50:07Z</time>
      </trkpt>
      <trkpt lat="43.42347" lon="6.38393">
        <ele>60</ele>
        <time>2024-12-06T13:50:11Z</time>
      </trkpt>
      <trkpt lat="43.42344" lon="6.38395">
        <ele>61</ele>
        <time>2024-12-06T13:50:15Z</time>
      </trkpt>
      <trkpt lat="43.42338" lon="6.38396">
        <ele>61</ele>
        <time>2024-12-06T13:50:23Z</time>
      </trkpt>
      <trkpt lat="43.42334" lon="6.38397">
        <ele>62</ele>
        <time>2024-12-06T13:50:29Z</time>
      </trkpt>
      <trkpt lat="43.4233" lon="6.38401">
        <ele>62</ele>
        <time>2024-12-06T13:50:33Z</time>
      </trkpt>
      <trkpt lat="43.42324" lon="6.38413">
        <ele>60</ele>
        <time>2024-12-06T13:50:44Z</time>
      </trkpt>
      <trkpt lat="43.42323" lon="6.38419">
        <ele>59</ele>
        <time>2024-12-06T13:50:51Z</time>
      </trkpt>
      <trkpt lat="43.42317" lon="6.38461">
        <ele>57</ele>
        <time>2024-12-06T13:51:21Z</time>
      </trkpt>
      <trkpt lat="43.42317" lon="6.38484">
        <ele>58</ele>
        <time>2024-12-06T13:51:37Z</time>
      </trkpt>
      <trkpt lat="43.42318" lon="6.38489">
        <ele>58</ele>
        <time>2024-12-06T13:51:41Z</time>
      </trkpt>
      <trkpt lat="43.42318" lon="6.38495">
        <ele>58</ele>
        <time>2024-12-06T13:51:45Z</time>
      </trkpt>
      <trkpt lat="43.42325" lon="6.38533">
        <ele>58</ele>
        <time>2024-12-06T13:52:15Z</time>
      </trkpt>
      <trkpt lat="43.4233" lon="6.38543">
        <ele>56</ele>
        <time>2024-12-06T13:52:24Z</time>
      </trkpt>
      <trkpt lat="43.4235" lon="6.38574">
        <ele>49</ele>
        <time>2024-12-06T13:52:54Z</time>
      </trkpt>
      <trkpt lat="43.42374" lon="6.38606">
        <ele>48</ele>
        <time>2024-12-06T13:53:26Z</time>
      </trkpt>
      <trkpt lat="43.42386" lon="6.38624">
        <ele>47</ele>
        <time>2024-12-06T13:53:44Z</time>
      </trkpt>
      <trkpt lat="43.4239" lon="6.38628">
        <ele>47</ele>
        <time>2024-12-06T13:53:49Z</time>
      </trkpt>
      <trkpt lat="43.42394" lon="6.3863">
        <ele>47</ele>
        <time>2024-12-06T13:53:53Z</time>
      </trkpt>
      <trkpt lat="43.42404" lon="6.3863">
        <ele>47</ele>
        <time>2024-12-06T13:54:02Z</time>
      </trkpt>
      <trkpt lat="43.42418" lon="6.3862">
        <ele>47</ele>
        <time>2024-12-06T13:54:21Z</time>
      </trkpt>
      <trkpt lat="43.42422" lon="6.38611">
        <ele>47</ele>
        <time>2024-12-06T13:54:29Z</time>
      </trkpt>
      <trkpt lat="43.42427" lon="6.386">
        <ele>47</ele>
        <time>2024-12-06T13:54:38Z</time>
      </trkpt>
      <trkpt lat="43.42436" lon="6.38589">
        <ele>44</ele>
        <time>2024-12-06T13:54:50Z</time>
      </trkpt>
      <trkpt lat="43.42439" lon="6.38579">
        <ele>44</ele>
        <time>2024-12-06T13:54:58Z</time>
      </trkpt>
      <trkpt lat="43.42445" lon="6.3857">
        <ele>46</ele>
        <time>2024-12-06T13:55:06Z</time>
      </trkpt>
      <trkpt lat="43.42478" lon="6.38554">
        <ele>46</ele>
        <time>2024-12-06T13:55:36Z</time>
      </trkpt>
      <trkpt lat="43.42508" lon="6.38541">
        <ele>43</ele>
        <time>2024-12-06T13:56:08Z</time>
      </trkpt>
      <trkpt lat="43.42527" lon="6.38533">
        <ele>41</ele>
        <time>2024-12-06T13:56:27Z</time>
      </trkpt>
      <trkpt lat="43.42538" lon="6.38528">
        <ele>40</ele>
        <time>2024-12-06T13:56:42Z</time>
      </trkpt>
      <trkpt lat="43.42543" lon="6.38524">
        <ele>39</ele>
        <time>2024-12-06T13:56:50Z</time>
      </trkpt>
      <trkpt lat="43.42548" lon="6.38521">
        <ele>38</ele>
        <time>2024-12-06T13:56:58Z</time>
      </trkpt>
      <trkpt lat="43.42558" lon="6.38516">
        <ele>36</ele>
        <time>2024-12-06T13:57:11Z</time>
      </trkpt>
      <trkpt lat="43.42592" lon="6.38502">
        <ele>32</ele>
        <time>2024-12-06T13:57:41Z</time>
      </trkpt>
      <trkpt lat="43.42596" lon="6.385">
        <ele>33</ele>
        <time>2024-12-06T13:57:45Z</time>
      </trkpt>
      <trkpt lat="43.42601" lon="6.38498">
        <ele>33</ele>
        <time>2024-12-06T13:57:49Z</time>
      </trkpt>
      <trkpt lat="43.42614" lon="6.38495">
        <ele>32</ele>
        <time>2024-12-06T13:58:00Z</time>
      </trkpt>
      <trkpt lat="43.42618" lon="6.38495">
        <ele>32</ele>
        <time>2024-12-06T13:58:04Z</time>
      </trkpt>
      <trkpt lat="43.42623" lon="6.38494">
        <ele>32</ele>
        <time>2024-12-06T13:58:08Z</time>
      </trkpt>
      <trkpt lat="43.42628" lon="6.38493">
        <ele>32</ele>
        <time>2024-12-06T13:58:12Z</time>
      </trkpt>
      <trkpt lat="43.4264" lon="6.38491">
        <ele>33</ele>
        <time>2024-12-06T13:58:24Z</time>
      </trkpt>
      <trkpt lat="43.42661" lon="6.38495">
        <ele>35</ele>
        <time>2024-12-06T13:58:48Z</time>
      </trkpt>
      <trkpt lat="43.42665" lon="6.38497">
        <ele>35</ele>
        <time>2024-12-06T13:58:52Z</time>
      </trkpt>
      <trkpt lat="43.42699" lon="6.385">
        <ele>39</ele>
        <time>2024-12-06T13:59:24Z</time>
      </trkpt>
      <trkpt lat="43.42737" lon="6.38506">
        <ele>40</ele>
        <time>2024-12-06T13:59:54Z</time>
      </trkpt>
      <trkpt lat="43.42752" lon="6.38511">
        <ele>41</ele>
        <time>2024-12-06T14:00:08Z</time>
      </trkpt>
      <trkpt lat="43.42756" lon="6.38513">
        <ele>41</ele>
        <time>2024-12-06T14:00:12Z</time>
      </trkpt>
      <trkpt lat="43.42787" lon="6.38525">
        <ele>39</ele>
        <time>2024-12-06T14:00:42Z</time>
      </trkpt>
      <trkpt lat="43.42797" lon="6.38532">
        <ele>38</ele>
        <time>2024-12-06T14:00:52Z</time>
      </trkpt>
      <trkpt lat="43.42801" lon="6.38533">
        <ele>38</ele>
        <time>2024-12-06T14:00:56Z</time>
      </trkpt>
      <trkpt lat="43.42806" lon="6.38536">
        <ele>37</ele>
        <time>2024-12-06T14:01:03Z</time>
      </trkpt>
      <trkpt lat="43.4281" lon="6.3854">
        <ele>37</ele>
        <time>2024-12-06T14:01:07Z</time>
      </trkpt>
      <trkpt lat="43.42814" lon="6.38543">
        <ele>37</ele>
        <time>2024-12-06T14:01:12Z</time>
      </trkpt>
      <trkpt lat="43.42824" lon="6.3855">
        <ele>37</ele>
        <time>2024-12-06T14:01:20Z</time>
      </trkpt>
      <trkpt lat="43.42829" lon="6.38552">
        <ele>37</ele>
        <time>2024-12-06T14:01:24Z</time>
      </trkpt>
      <trkpt lat="43.42836" lon="6.38555">
        <ele>38</ele>
        <time>2024-12-06T14:01:32Z</time>
      </trkpt>
      <trkpt lat="43.4284" lon="6.38556">
        <ele>39</ele>
        <time>2024-12-06T14:01:38Z</time>
      </trkpt>
      <trkpt lat="43.42844" lon="6.38558">
        <ele>39</ele>
        <time>2024-12-06T14:01:42Z</time>
      </trkpt>
      <trkpt lat="43.42848" lon="6.38564">
        <ele>39</ele>
        <time>2024-12-06T14:01:46Z</time>
      </trkpt>
      <trkpt lat="43.42852" lon="6.38568">
        <ele>37</ele>
        <time>2024-12-06T14:01:52Z</time>
      </trkpt>
      <trkpt lat="43.42856" lon="6.38569">
        <ele>37</ele>
        <time>2024-12-06T14:01:56Z</time>
      </trkpt>
      <trkpt lat="43.42866" lon="6.38574">
        <ele>37</ele>
        <time>2024-12-06T14:02:04Z</time>
      </trkpt>
      <trkpt lat="43.42874" lon="6.38581">
        <ele>36</ele>
        <time>2024-12-06T14:02:13Z</time>
      </trkpt>
      <trkpt lat="43.42884" lon="6.38584">
        <ele>37</ele>
        <time>2024-12-06T14:02:23Z</time>
      </trkpt>
      <trkpt lat="43.42901" lon="6.38596">
        <ele>38</ele>
        <time>2024-12-06T14:02:39Z</time>
      </trkpt>
      <trkpt lat="43.42905" lon="6.386">
        <ele>37</ele>
        <time>2024-12-06T14:02:43Z</time>
      </trkpt>
      <trkpt lat="43.42909" lon="6.38604">
        <ele>38</ele>
        <time>2024-12-06T14:02:49Z</time>
      </trkpt>
      <trkpt lat="43.42915" lon="6.38613">
        <ele>39</ele>
        <time>2024-12-06T14:02:57Z</time>
      </trkpt>
      <trkpt lat="43.42921" lon="6.3862">
        <ele>39</ele>
        <time>2024-12-06T14:03:05Z</time>
      </trkpt>
      <trkpt lat="43.42928" lon="6.38627">
        <ele>40</ele>
        <time>2024-12-06T14:03:19Z</time>
      </trkpt>
      <trkpt lat="43.42928" lon="6.38633">
        <ele>44</ele>
        <time>2024-12-06T14:03:33Z</time>
      </trkpt>
      <trkpt lat="43.42933" lon="6.3864">
        <ele>50</ele>
        <time>2024-12-06T14:03:55Z</time>
      </trkpt>
      <trkpt lat="43.42947" lon="6.38648">
        <ele>53</ele>
        <time>2024-12-06T14:04:15Z</time>
      </trkpt>
      <trkpt lat="43.42951" lon="6.38652">
        <ele>52</ele>
        <time>2024-12-06T14:04:19Z</time>
      </trkpt>
      <trkpt lat="43.42959" lon="6.38657">
        <ele>51</ele>
        <time>2024-12-06T14:04:29Z</time>
      </trkpt>
      <trkpt lat="43.42974" lon="6.3867">
        <ele>51</ele>
        <time>2024-12-06T14:04:49Z</time>
      </trkpt>
      <trkpt lat="43.42977" lon="6.38674">
        <ele>52</ele>
        <time>2024-12-06T14:04:53Z</time>
      </trkpt>
      <trkpt lat="43.42984" lon="6.38681">
        <ele>52</ele>
        <time>2024-12-06T14:05:03Z</time>
      </trkpt>
      <trkpt lat="43.42987" lon="6.38684">
        <ele>52</ele>
        <time>2024-12-06T14:05:07Z</time>
      </trkpt>
      <trkpt lat="43.4299" lon="6.38689">
        <ele>50</ele>
        <time>2024-12-06T14:05:13Z</time>
      </trkpt>
      <trkpt lat="43.42998" lon="6.38694">
        <ele>47</ele>
        <time>2024-12-06T14:05:23Z</time>
      </trkpt>
      <trkpt lat="43.43003" lon="6.38698">
        <ele>46</ele>
        <time>2024-12-06T14:05:32Z</time>
      </trkpt>
      <trkpt lat="43.43023" lon="6.38723">
        <ele>45</ele>
        <time>2024-12-06T14:05:58Z</time>
      </trkpt>
      <trkpt lat="43.43025" lon="6.38728">
        <ele>46</ele>
        <time>2024-12-06T14:06:02Z</time>
      </trkpt>
      <trkpt lat="43.43034" lon="6.38754">
        <ele>48</ele>
        <time>2024-12-06T14:06:23Z</time>
      </trkpt>
      <trkpt lat="43.43037" lon="6.38758">
        <ele>47</ele>
        <time>2024-12-06T14:06:27Z</time>
      </trkpt>
      <trkpt lat="43.43043" lon="6.38766">
        <ele>47</ele>
        <time>2024-12-06T14:06:35Z</time>
      </trkpt>
      <trkpt lat="43.43044" lon="6.3877">
        <ele>48</ele>
        <time>2024-12-06T14:06:39Z</time>
      </trkpt>
      <trkpt lat="43.43051" lon="6.38784">
        <ele>47</ele>
        <time>2024-12-06T14:06:49Z</time>
      </trkpt>
      <trkpt lat="43.43055" lon="6.38789">
        <ele>47</ele>
        <time>2024-12-06T14:06:53Z</time>
      </trkpt>
      <trkpt lat="43.43062" lon="6.38807">
        <ele>48</ele>
        <time>2024-12-06T14:07:05Z</time>
      </trkpt>
      <trkpt lat="43.43065" lon="6.38818">
        <ele>48</ele>
        <time>2024-12-06T14:07:15Z</time>
      </trkpt>
      <trkpt lat="43.43067" lon="6.38824">
        <ele>49</ele>
        <time>2024-12-06T14:07:19Z</time>
      </trkpt>
      <trkpt lat="43.43084" lon="6.38847">
        <ele>49</ele>
        <time>2024-12-06T14:07:42Z</time>
      </trkpt>
      <trkpt lat="43.43086" lon="6.38858">
        <ele>51</ele>
        <time>2024-12-06T14:07:56Z</time>
      </trkpt>
      <trkpt lat="43.43086" lon="6.38863">
        <ele>51</ele>
        <time>2024-12-06T14:08:02Z</time>
      </trkpt>
      <trkpt lat="43.43085" lon="6.38869">
        <ele>53</ele>
        <time>2024-12-06T14:08:23Z</time>
      </trkpt>
      <trkpt lat="43.43087" lon="6.38877">
        <ele>53</ele>
        <time>2024-12-06T14:08:31Z</time>
      </trkpt>
      <trkpt lat="43.43089" lon="6.38883">
        <ele>51</ele>
        <time>2024-12-06T14:08:37Z</time>
      </trkpt>
      <trkpt lat="43.43091" lon="6.3889">
        <ele>51</ele>
        <time>2024-12-06T14:08:44Z</time>
      </trkpt>
      <trkpt lat="43.43092" lon="6.38897">
        <ele>50</ele>
        <time>2024-12-06T14:08:49Z</time>
      </trkpt>
      <trkpt lat="43.43096" lon="6.38909">
        <ele>49</ele>
        <time>2024-12-06T14:08:57Z</time>
      </trkpt>
      <trkpt lat="43.43099" lon="6.38914">
        <ele>49</ele>
        <time>2024-12-06T14:09:01Z</time>
      </trkpt>
      <trkpt lat="43.431" lon="6.3892">
        <ele>48</ele>
        <time>2024-12-06T14:09:05Z</time>
      </trkpt>
      <trkpt lat="43.43099" lon="6.3893">
        <ele>47</ele>
        <time>2024-12-06T14:09:12Z</time>
      </trkpt>
      <trkpt lat="43.431" lon="6.38935">
        <ele>48</ele>
        <time>2024-12-06T14:09:20Z</time>
      </trkpt>
      <trkpt lat="43.43102" lon="6.38942">
        <ele>49</ele>
        <time>2024-12-06T14:09:26Z</time>
      </trkpt>
      <trkpt lat="43.43101" lon="6.38958">
        <ele>50</ele>
        <time>2024-12-06T14:09:42Z</time>
      </trkpt>
      <trkpt lat="43.431" lon="6.38965">
        <ele>50</ele>
        <time>2024-12-06T14:09:49Z</time>
      </trkpt>
      <trkpt lat="43.43097" lon="6.38987">
        <ele>48</ele>
        <time>2024-12-06T14:10:05Z</time>
      </trkpt>
      <trkpt lat="43.43097" lon="6.38995">
        <ele>48</ele>
        <time>2024-12-06T14:10:11Z</time>
      </trkpt>
      <trkpt lat="43.43096" lon="6.39009">
        <ele>48</ele>
        <time>2024-12-06T14:10:21Z</time>
      </trkpt>
      <trkpt lat="43.43094" lon="6.39017">
        <ele>47</ele>
        <time>2024-12-06T14:10:27Z</time>
      </trkpt>
      <trkpt lat="43.43094" lon="6.39023">
        <ele>47</ele>
        <time>2024-12-06T14:10:31Z</time>
      </trkpt>
      <trkpt lat="43.43092" lon="6.3903">
        <ele>46</ele>
        <time>2024-12-06T14:10:35Z</time>
      </trkpt>
      <trkpt lat="43.43092" lon="6.3904">
        <ele>45</ele>
        <time>2024-12-06T14:10:41Z</time>
      </trkpt>
      <trkpt lat="43.43089" lon="6.39059">
        <ele>45</ele>
        <time>2024-12-06T14:10:53Z</time>
      </trkpt>
      <trkpt lat="43.43087" lon="6.39068">
        <ele>44</ele>
        <time>2024-12-06T14:10:59Z</time>
      </trkpt>
      <trkpt lat="43.43086" lon="6.39075">
        <ele>44</ele>
        <time>2024-12-06T14:11:05Z</time>
      </trkpt>
      <trkpt lat="43.43086" lon="6.39083">
        <ele>44</ele>
        <time>2024-12-06T14:11:10Z</time>
      </trkpt>
      <trkpt lat="43.43085" lon="6.39092">
        <ele>43</ele>
        <time>2024-12-06T14:11:16Z</time>
      </trkpt>
      <trkpt lat="43.43085" lon="6.39098">
        <ele>43</ele>
        <time>2024-12-06T14:11:20Z</time>
      </trkpt>
      <trkpt lat="43.43084" lon="6.39104">
        <ele>44</ele>
        <time>2024-12-06T14:11:24Z</time>
      </trkpt>
      <trkpt lat="43.43084" lon="6.39113">
        <ele>44</ele>
        <time>2024-12-06T14:11:28Z</time>
      </trkpt>
      <trkpt lat="43.43081" lon="6.39136">
        <ele>46</ele>
        <time>2024-12-06T14:11:44Z</time>
      </trkpt>
      <trkpt lat="43.43079" lon="6.39142">
        <ele>45</ele>
        <time>2024-12-06T14:11:48Z</time>
      </trkpt>
      <trkpt lat="43.43076" lon="6.39157">
        <ele>45</ele>
        <time>2024-12-06T14:11:58Z</time>
      </trkpt>
      <trkpt lat="43.4307" lon="6.39174">
        <ele>47</ele>
        <time>2024-12-06T14:12:11Z</time>
      </trkpt>
      <trkpt lat="43.43067" lon="6.39184">
        <ele>47</ele>
        <time>2024-12-06T14:12:18Z</time>
      </trkpt>
      <trkpt lat="43.43065" lon="6.39191">
        <ele>47</ele>
        <time>2024-12-06T14:12:22Z</time>
      </trkpt>
      <trkpt lat="43.43063" lon="6.39198">
        <ele>47</ele>
        <time>2024-12-06T14:12:26Z</time>
      </trkpt>
      <trkpt lat="43.43062" lon="6.39204">
        <ele>47</ele>
        <time>2024-12-06T14:12:30Z</time>
      </trkpt>
      <trkpt lat="43.43054" lon="6.39234">
        <ele>49</ele>
        <time>2024-12-06T14:12:50Z</time>
      </trkpt>
      <trkpt lat="43.43051" lon="6.39241">
        <ele>49</ele>
        <time>2024-12-06T14:12:56Z</time>
      </trkpt>
      <trkpt lat="43.43049" lon="6.39249">
        <ele>49</ele>
        <time>2024-12-06T14:13:01Z</time>
      </trkpt>
      <trkpt lat="43.43039" lon="6.39284">
        <ele>48</ele>
        <time>2024-12-06T14:13:26Z</time>
      </trkpt>
      <trkpt lat="43.43036" lon="6.3929">
        <ele>48</ele>
        <time>2024-12-06T14:13:30Z</time>
      </trkpt>
      <trkpt lat="43.43035" lon="6.39297">
        <ele>47</ele>
        <time>2024-12-06T14:13:34Z</time>
      </trkpt>
      <trkpt lat="43.43032" lon="6.39307">
        <ele>47</ele>
        <time>2024-12-06T14:13:41Z</time>
      </trkpt>
      <trkpt lat="43.43029" lon="6.39313">
        <ele>46</ele>
        <time>2024-12-06T14:13:47Z</time>
      </trkpt>
      <trkpt lat="43.43025" lon="6.39332">
        <ele>48</ele>
        <time>2024-12-06T14:13:59Z</time>
      </trkpt>
      <trkpt lat="43.43019" lon="6.39357">
        <ele>49</ele>
        <time>2024-12-06T14:14:13Z</time>
      </trkpt>
      <trkpt lat="43.43015" lon="6.39369">
        <ele>49</ele>
        <time>2024-12-06T14:14:21Z</time>
      </trkpt>
      <trkpt lat="43.43013" lon="6.39375">
        <ele>50</ele>
        <time>2024-12-06T14:14:25Z</time>
      </trkpt>
      <trkpt lat="43.43006" lon="6.39394">
        <ele>50</ele>
        <time>2024-12-06T14:14:38Z</time>
      </trkpt>
      <trkpt lat="43.43001" lon="6.39408">
        <ele>50</ele>
        <time>2024-12-06T14:14:48Z</time>
      </trkpt>
      <trkpt lat="43.42998" lon="6.39416">
        <ele>50</ele>
        <time>2024-12-06T14:14:52Z</time>
      </trkpt>
      <trkpt lat="43.42991" lon="6.39429">
        <ele>50</ele>
        <time>2024-12-06T14:15:00Z</time>
      </trkpt>
      <trkpt lat="43.42988" lon="6.39435">
        <ele>50</ele>
        <time>2024-12-06T14:15:04Z</time>
      </trkpt>
      <trkpt lat="43.42973" lon="6.39465">
        <ele>52</ele>
        <time>2024-12-06T14:15:30Z</time>
      </trkpt>
      <trkpt lat="43.42971" lon="6.39472">
        <ele>52</ele>
        <time>2024-12-06T14:15:35Z</time>
      </trkpt>
      <trkpt lat="43.42966" lon="6.39479">
        <ele>51</ele>
        <time>2024-12-06T14:15:41Z</time>
      </trkpt>
      <trkpt lat="43.42964" lon="6.39485">
        <ele>51</ele>
        <time>2024-12-06T14:15:45Z</time>
      </trkpt>
      <trkpt lat="43.42963" lon="6.39492">
        <ele>50</ele>
        <time>2024-12-06T14:15:49Z</time>
      </trkpt>
      <trkpt lat="43.42961" lon="6.39497">
        <ele>50</ele>
        <time>2024-12-06T14:15:53Z</time>
      </trkpt>
      <trkpt lat="43.42953" lon="6.39519">
        <ele>50</ele>
        <time>2024-12-06T14:16:06Z</time>
      </trkpt>
      <trkpt lat="43.42949" lon="6.39526">
        <ele>50</ele>
        <time>2024-12-06T14:16:12Z</time>
      </trkpt>
      <trkpt lat="43.42948" lon="6.39532">
        <ele>50</ele>
        <time>2024-12-06T14:16:18Z</time>
      </trkpt>
      <trkpt lat="43.42946" lon="6.39543">
        <ele>50</ele>
        <time>2024-12-06T14:16:26Z</time>
      </trkpt>
      <trkpt lat="43.42931" lon="6.39579">
        <ele>47</ele>
        <time>2024-12-06T14:16:54Z</time>
      </trkpt>
      <trkpt lat="43.4293" lon="6.39586">
        <ele>48</ele>
        <time>2024-12-06T14:17:02Z</time>
      </trkpt>
      <trkpt lat="43.42926" lon="6.39602">
        <ele>53</ele>
        <time>2024-12-06T14:17:57Z</time>
      </trkpt>
      <trkpt lat="43.42925" lon="6.39605">
        <ele>54</ele>
        <time>2024-12-06T14:18:27Z</time>
      </trkpt>
      <trkpt lat="43.42925" lon="6.39608">
        <ele>58</ele>
        <time>2024-12-06T14:19:25Z</time>
      </trkpt>
      <trkpt lat="43.42922" lon="6.39611">
        <ele>58</ele>
        <time>2024-12-06T14:19:43Z</time>
      </trkpt>
      <trkpt lat="43.4292" lon="6.39617">
        <ele>55</ele>
        <time>2024-12-06T14:21:31Z</time>
      </trkpt>
      <trkpt lat="43.42917" lon="6.39632">
        <ele>54</ele>
        <time>2024-12-06T14:21:50Z</time>
      </trkpt>
      <trkpt lat="43.42915" lon="6.39637">
        <ele>55</ele>
        <time>2024-12-06T14:21:56Z</time>
      </trkpt>
      <trkpt lat="43.42911" lon="6.39649">
        <ele>57</ele>
        <time>2024-12-06T14:22:07Z</time>
      </trkpt>
      <trkpt lat="43.42908" lon="6.39661">
        <ele>59</ele>
        <time>2024-12-06T14:22:17Z</time>
      </trkpt>
      <trkpt lat="43.42907" lon="6.39666">
        <ele>59</ele>
        <time>2024-12-06T14:22:21Z</time>
      </trkpt>
      <trkpt lat="43.42903" lon="6.39674">
        <ele>58</ele>
        <time>2024-12-06T14:22:27Z</time>
      </trkpt>
      <trkpt lat="43.429" lon="6.39687">
        <ele>59</ele>
        <time>2024-12-06T14:22:37Z</time>
      </trkpt>
      <trkpt lat="43.42898" lon="6.39694">
        <ele>59</ele>
        <time>2024-12-06T14:22:42Z</time>
      </trkpt>
      <trkpt lat="43.42896" lon="6.39701">
        <ele>58</ele>
        <time>2024-12-06T14:22:47Z</time>
      </trkpt>
      <trkpt lat="43.42883" lon="6.39739">
        <ele>60</ele>
        <time>2024-12-06T14:23:17Z</time>
      </trkpt>
      <trkpt lat="43.4287" lon="6.39775">
        <ele>59</ele>
        <time>2024-12-06T14:23:42Z</time>
      </trkpt>
      <trkpt lat="43.42865" lon="6.39787">
        <ele>59</ele>
        <time>2024-12-06T14:23:51Z</time>
      </trkpt>
      <trkpt lat="43.42858" lon="6.3981">
        <ele>57</ele>
        <time>2024-12-06T14:24:07Z</time>
      </trkpt>
      <trkpt lat="43.42857" lon="6.39817">
        <ele>56</ele>
        <time>2024-12-06T14:24:12Z</time>
      </trkpt>
      <trkpt lat="43.42853" lon="6.39834">
        <ele>56</ele>
        <time>2024-12-06T14:24:24Z</time>
      </trkpt>
      <trkpt lat="43.42855" lon="6.39873">
        <ele>53</ele>
        <time>2024-12-06T14:24:50Z</time>
      </trkpt>
      <trkpt lat="43.42859" lon="6.39904">
        <ele>52</ele>
        <time>2024-12-06T14:25:41Z</time>
      </trkpt>
      <trkpt lat="43.42859" lon="6.39907">
        <ele>52</ele>
        <time>2024-12-06T14:25:59Z</time>
      </trkpt>
      <trkpt lat="43.42864" lon="6.39909">
        <ele>52</ele>
        <time>2024-12-06T14:26:11Z</time>
      </trkpt>
      <trkpt lat="43.42863" lon="6.39913">
        <ele>54</ele>
        <time>2024-12-06T14:26:51Z</time>
      </trkpt>
      <trkpt lat="43.42862" lon="6.39915">
        <ele>56</ele>
        <time>2024-12-06T14:26:56Z</time>
      </trkpt>
      <trkpt lat="43.42861" lon="6.39917">
        <ele>56</ele>
        <time>2024-12-06T14:26:59Z</time>
      </trkpt>
      <trkpt lat="43.42862" lon="6.39921">
        <ele>54</ele>
        <time>2024-12-06T14:27:08Z</time>
      </trkpt>
      <trkpt lat="43.42864" lon="6.39927">
        <ele>53</ele>
        <time>2024-12-06T14:27:12Z</time>
      </trkpt>
      <trkpt lat="43.42863" lon="6.39945">
        <ele>53</ele>
        <time>2024-12-06T14:27:29Z</time>
      </trkpt>
      <trkpt lat="43.42863" lon="6.39949">
        <ele>53</ele>
        <time>2024-12-06T14:27:33Z</time>
      </trkpt>
      <trkpt lat="43.42867" lon="6.39949">
        <ele>53</ele>
        <time>2024-12-06T14:27:37Z</time>
      </trkpt>
      <trkpt lat="43.4287" lon="6.39948">
        <ele>53</ele>
        <time>2024-12-06T14:27:41Z</time>
      </trkpt>
      <trkpt lat="43.42883" lon="6.39935">
        <ele>51</ele>
        <time>2024-12-06T14:28:00Z</time>
      </trkpt>
      <trkpt lat="43.42886" lon="6.39934">
        <ele>52</ele>
        <time>2024-12-06T14:28:04Z</time>
      </trkpt>
      <trkpt lat="43.42894" lon="6.39926">
        <ele>51</ele>
        <time>2024-12-06T14:28:15Z</time>
      </trkpt>
      <trkpt lat="43.4291" lon="6.39914">
        <ele>51</ele>
        <time>2024-12-06T14:28:35Z</time>
      </trkpt>
      <trkpt lat="43.42919" lon="6.39905">
        <ele>52</ele>
        <time>2024-12-06T14:28:47Z</time>
      </trkpt>
      <trkpt lat="43.42926" lon="6.39901">
        <ele>51</ele>
        <time>2024-12-06T14:28:55Z</time>
      </trkpt>
      <trkpt lat="43.42929" lon="6.39898">
        <ele>50</ele>
        <time>2024-12-06T14:28:59Z</time>
      </trkpt>
      <trkpt lat="43.42935" lon="6.39892">
        <ele>51</ele>
        <time>2024-12-06T14:29:07Z</time>
      </trkpt>
      <trkpt lat="43.42938" lon="6.3989">
        <ele>52</ele>
        <time>2024-12-06T14:29:11Z</time>
      </trkpt>
      <trkpt lat="43.42942" lon="6.39887">
        <ele>52</ele>
        <time>2024-12-06T14:29:17Z</time>
      </trkpt>
      <trkpt lat="43.42946" lon="6.39883">
        <ele>52</ele>
        <time>2024-12-06T14:29:24Z</time>
      </trkpt>
      <trkpt lat="43.42951" lon="6.39875">
        <ele>52</ele>
        <time>2024-12-06T14:29:34Z</time>
      </trkpt>
      <trkpt lat="43.42956" lon="6.3987">
        <ele>52</ele>
        <time>2024-12-06T14:29:42Z</time>
      </trkpt>
      <trkpt lat="43.42972" lon="6.39853">
        <ele>53</ele>
        <time>2024-12-06T14:30:02Z</time>
      </trkpt>
      <trkpt lat="43.42984" lon="6.39843">
        <ele>52</ele>
        <time>2024-12-06T14:30:18Z</time>
      </trkpt>
      <trkpt lat="43.42988" lon="6.3984">
        <ele>52</ele>
        <time>2024-12-06T14:30:26Z</time>
      </trkpt>
      <trkpt lat="43.42997" lon="6.39834">
        <ele>52</ele>
        <time>2024-12-06T14:30:43Z</time>
      </trkpt>
      <trkpt lat="43.43" lon="6.39836">
        <ele>52</ele>
        <time>2024-12-06T14:30:53Z</time>
      </trkpt>
      <trkpt lat="43.43004" lon="6.39834">
        <ele>51</ele>
        <time>2024-12-06T14:31:01Z</time>
      </trkpt>
      <trkpt lat="43.43005" lon="6.3983">
        <ele>51</ele>
        <time>2024-12-06T14:31:14Z</time>
      </trkpt>
      <trkpt lat="43.43008" lon="6.39827">
        <ele>51</ele>
        <time>2024-12-06T14:31:18Z</time>
      </trkpt>
      <trkpt lat="43.43011" lon="6.39826">
        <ele>52</ele>
        <time>2024-12-06T14:31:26Z</time>
      </trkpt>
      <trkpt lat="43.43018" lon="6.3983">
        <ele>51</ele>
        <time>2024-12-06T14:31:52Z</time>
      </trkpt>
      <trkpt lat="43.43019" lon="6.39826">
        <ele>55</ele>
        <time>2024-12-06T14:32:22Z</time>
      </trkpt>
      <trkpt lat="43.43018" lon="6.39821">
        <ele>57</ele>
        <time>2024-12-06T14:32:28Z</time>
      </trkpt>
      <trkpt lat="43.4302" lon="6.39817">
        <ele>58</ele>
        <time>2024-12-06T14:33:21Z</time>
      </trkpt>
      <trkpt lat="43.43022" lon="6.39815">
        <ele>59</ele>
        <time>2024-12-06T14:33:25Z</time>
      </trkpt>
      <trkpt lat="43.43024" lon="6.39811">
        <ele>59</ele>
        <time>2024-12-06T14:33:44Z</time>
      </trkpt>
      <trkpt lat="43.43021" lon="6.3981">
        <ele>58</ele>
        <time>2024-12-06T14:34:10Z</time>
      </trkpt>
      <trkpt lat="43.43021" lon="6.39809">
        <ele>58</ele>
        <time>2024-12-06T14:35:36Z</time>
      </trkpt>
      <trkpt lat="43.4302" lon="6.39816">
        <ele>58</ele>
        <time>2024-12-06T14:35:58Z</time>
      </trkpt>
      <trkpt lat="43.43021" lon="6.39816">
        <ele>58</ele>
        <time>2024-12-06T14:36:26Z</time>
      </trkpt>
      <trkpt lat="43.43017" lon="6.39816">
        <ele>59</ele>
        <time>2024-12-06T14:38:16Z</time>
      </trkpt>
      <trkpt lat="43.43013" lon="6.39816">
        <ele>60</ele>
        <time>2024-12-06T14:38:22Z</time>
      </trkpt>
      <trkpt lat="43.4301" lon="6.39818">
        <ele>61</ele>
        <time>2024-12-06T14:38:28Z</time>
      </trkpt>
      <trkpt lat="43.43008" lon="6.39822">
        <ele>61</ele>
        <time>2024-12-06T14:38:34Z</time>
      </trkpt>
      <trkpt lat="43.43005" lon="6.39825">
        <ele>60</ele>
        <time>2024-12-06T14:38:40Z</time>
      </trkpt>
      <trkpt lat="43.43002" lon="6.39829">
        <ele>60</ele>
        <time>2024-12-06T14:38:44Z</time>
      </trkpt>
      <trkpt lat="43.4298" lon="6.39846">
        <ele>60</ele>
        <time>2024-12-06T14:39:10Z</time>
      </trkpt>
      <trkpt lat="43.42956" lon="6.3987">
        <ele>63</ele>
        <time>2024-12-06T14:39:42Z</time>
      </trkpt>
      <trkpt lat="43.42932" lon="6.3989">
        <ele>64</ele>
        <time>2024-12-06T14:40:14Z</time>
      </trkpt>
      <trkpt lat="43.42922" lon="6.399">
        <ele>64</ele>
        <time>2024-12-06T14:40:28Z</time>
      </trkpt>
      <trkpt lat="43.4292" lon="6.39902">
        <ele>64</ele>
        <time>2024-12-06T14:40:32Z</time>
      </trkpt>
      <trkpt lat="43.42913" lon="6.39908">
        <ele>63</ele>
        <time>2024-12-06T14:40:40Z</time>
      </trkpt>
      <trkpt lat="43.42911" lon="6.39911">
        <ele>63</ele>
        <time>2024-12-06T14:40:44Z</time>
      </trkpt>
      <trkpt lat="43.42905" lon="6.39915">
        <ele>64</ele>
        <time>2024-12-06T14:40:52Z</time>
      </trkpt>
      <trkpt lat="43.42887" lon="6.39934">
        <ele>62</ele>
        <time>2024-12-06T14:41:16Z</time>
      </trkpt>
      <trkpt lat="43.42878" lon="6.39942">
        <ele>60</ele>
        <time>2024-12-06T14:41:24Z</time>
      </trkpt>
      <trkpt lat="43.42867" lon="6.39956">
        <ele>57</ele>
        <time>2024-12-06T14:41:36Z</time>
      </trkpt>
      <trkpt lat="43.42865" lon="6.39961">
        <ele>57</ele>
        <time>2024-12-06T14:41:40Z</time>
      </trkpt>
      <trkpt lat="43.42864" lon="6.39967">
        <ele>57</ele>
        <time>2024-12-06T14:41:44Z</time>
      </trkpt>
      <trkpt lat="43.42863" lon="6.39971">
        <ele>56</ele>
        <time>2024-12-06T14:41:48Z</time>
      </trkpt>
      <trkpt lat="43.42859" lon="6.40015">
        <ele>52</ele>
        <time>2024-12-06T14:42:20Z</time>
      </trkpt>
      <trkpt lat="43.4286" lon="6.40047">
        <ele>51</ele>
        <time>2024-12-06T14:42:44Z</time>
      </trkpt>
      <trkpt lat="43.4286" lon="6.40058">
        <ele>51</ele>
        <time>2024-12-06T14:42:52Z</time>
      </trkpt>
      <trkpt lat="43.42859" lon="6.40068">
        <ele>51</ele>
        <time>2024-12-06T14:43:00Z</time>
      </trkpt>
      <trkpt lat="43.42859" lon="6.40078">
        <ele>51</ele>
        <time>2024-12-06T14:43:10Z</time>
      </trkpt>
      <trkpt lat="43.42859" lon="6.40085">
        <ele>51</ele>
        <time>2024-12-06T14:43:14Z</time>
      </trkpt>
      <trkpt lat="43.42851" lon="6.40118">
        <ele>53</ele>
        <time>2024-12-06T14:43:38Z</time>
      </trkpt>
      <trkpt lat="43.42849" lon="6.40121">
        <ele>53</ele>
        <time>2024-12-06T14:43:42Z</time>
      </trkpt>
      <trkpt lat="43.4284" lon="6.40137">
        <ele>54</ele>
        <time>2024-12-06T14:43:58Z</time>
      </trkpt>
      <trkpt lat="43.42834" lon="6.40144">
        <ele>54</ele>
        <time>2024-12-06T14:44:10Z</time>
      </trkpt>
      <trkpt lat="43.42834" lon="6.40149">
        <ele>53</ele>
        <time>2024-12-06T14:44:16Z</time>
      </trkpt>
      <trkpt lat="43.42834" lon="6.40154">
        <ele>49</ele>
        <time>2024-12-06T14:44:34Z</time>
      </trkpt>
      <trkpt lat="43.42835" lon="6.40157">
        <ele>47</ele>
        <time>2024-12-06T14:44:56Z</time>
      </trkpt>
      <trkpt lat="43.42854" lon="6.40161">
        <ele>42</ele>
        <time>2024-12-06T14:45:22Z</time>
      </trkpt>
      <trkpt lat="43.42868" lon="6.40163">
        <ele>42</ele>
        <time>2024-12-06T14:45:46Z</time>
      </trkpt>
      <trkpt lat="43.42892" lon="6.40164">
        <ele>40</ele>
        <time>2024-12-06T14:46:12Z</time>
      </trkpt>
      <trkpt lat="43.42913" lon="6.40154">
        <ele>39</ele>
        <time>2024-12-06T14:46:34Z</time>
      </trkpt>
      <trkpt lat="43.42917" lon="6.40151">
        <ele>40</ele>
        <time>2024-12-06T14:46:40Z</time>
      </trkpt>
      <trkpt lat="43.42923" lon="6.40147">
        <ele>40</ele>
        <time>2024-12-06T14:46:46Z</time>
      </trkpt>
      <trkpt lat="43.42932" lon="6.40141">
        <ele>41</ele>
        <time>2024-12-06T14:46:58Z</time>
      </trkpt>
      <trkpt lat="43.42939" lon="6.40135">
        <ele>44</ele>
        <time>2024-12-06T14:47:04Z</time>
      </trkpt>
      <trkpt lat="43.42943" lon="6.40132">
        <ele>45</ele>
        <time>2024-12-06T14:47:08Z</time>
      </trkpt>
      <trkpt lat="43.42949" lon="6.40124">
        <ele>47</ele>
        <time>2024-12-06T14:47:16Z</time>
      </trkpt>
      <trkpt lat="43.42953" lon="6.40123">
        <ele>48</ele>
        <time>2024-12-06T14:47:20Z</time>
      </trkpt>
      <trkpt lat="43.42963" lon="6.40114">
        <ele>51</ele>
        <time>2024-12-06T14:47:32Z</time>
      </trkpt>
      <trkpt lat="43.42977" lon="6.40103">
        <ele>54</ele>
        <time>2024-12-06T14:47:50Z</time>
      </trkpt>
      <trkpt lat="43.42986" lon="6.40094">
        <ele>55</ele>
        <time>2024-12-06T14:48:02Z</time>
      </trkpt>
      <trkpt lat="43.42989" lon="6.40092">
        <ele>54</ele>
        <time>2024-12-06T14:48:06Z</time>
      </trkpt>
      <trkpt lat="43.42992" lon="6.40089">
        <ele>54</ele>
        <time>2024-12-06T14:48:10Z</time>
      </trkpt>
      <trkpt lat="43.42996" lon="6.40086">
        <ele>53</ele>
        <time>2024-12-06T14:48:14Z</time>
      </trkpt>
      <trkpt lat="43.43" lon="6.40082">
        <ele>53</ele>
        <time>2024-12-06T14:48:18Z</time>
      </trkpt>
      <trkpt lat="43.43003" lon="6.40079">
        <ele>53</ele>
        <time>2024-12-06T14:48:22Z</time>
      </trkpt>
      <trkpt lat="43.43007" lon="6.40076">
        <ele>53</ele>
        <time>2024-12-06T14:48:26Z</time>
      </trkpt>
      <trkpt lat="43.43024" lon="6.4006">
        <ele>53</ele>
        <time>2024-12-06T14:48:46Z</time>
      </trkpt>
      <trkpt lat="43.43028" lon="6.40057">
        <ele>54</ele>
        <time>2024-12-06T14:48:50Z</time>
      </trkpt>
      <trkpt lat="43.43033" lon="6.40054">
        <ele>54</ele>
        <time>2024-12-06T14:48:54Z</time>
      </trkpt>
      <trkpt lat="43.43039" lon="6.40048">
        <ele>56</ele>
        <time>2024-12-06T14:49:02Z</time>
      </trkpt>
      <trkpt lat="43.43043" lon="6.40045">
        <ele>56</ele>
        <time>2024-12-06T14:49:06Z</time>
      </trkpt>
      <trkpt lat="43.43046" lon="6.40043">
        <ele>57</ele>
        <time>2024-12-06T14:49:10Z</time>
      </trkpt>
      <trkpt lat="43.43056" lon="6.40033">
        <ele>58</ele>
        <time>2024-12-06T14:49:22Z</time>
      </trkpt>
      <trkpt lat="43.43059" lon="6.4003">
        <ele>59</ele>
        <time>2024-12-06T14:49:26Z</time>
      </trkpt>
      <trkpt lat="43.43083" lon="6.40011">
        <ele>62</ele>
        <time>2024-12-06T14:49:56Z</time>
      </trkpt>
      <trkpt lat="43.43104" lon="6.39998">
        <ele>64</ele>
        <time>2024-12-06T14:50:34Z</time>
      </trkpt>
      <trkpt lat="43.43106" lon="6.39997">
        <ele>67</ele>
        <time>2024-12-06T14:50:48Z</time>
      </trkpt>
      <trkpt lat="43.4311" lon="6.39991">
        <ele>69</ele>
        <time>2024-12-06T14:50:56Z</time>
      </trkpt>
      <trkpt lat="43.43115" lon="6.39977">
        <ele>67</ele>
        <time>2024-12-06T14:51:10Z</time>
      </trkpt>
      <trkpt lat="43.43117" lon="6.39974">
        <ele>66</ele>
        <time>2024-12-06T14:51:14Z</time>
      </trkpt>
      <trkpt lat="43.43124" lon="6.39955">
        <ele>65</ele>
        <time>2024-12-06T14:51:30Z</time>
      </trkpt>
      <trkpt lat="43.43127" lon="6.39952">
        <ele>65</ele>
        <time>2024-12-06T14:51:34Z</time>
      </trkpt>
      <trkpt lat="43.43129" lon="6.39948">
        <ele>65</ele>
        <time>2024-12-06T14:51:38Z</time>
      </trkpt>
      <trkpt lat="43.43141" lon="6.39922">
        <ele>66</ele>
        <time>2024-12-06T14:52:00Z</time>
      </trkpt>
      <trkpt lat="43.43143" lon="6.39918">
        <ele>66</ele>
        <time>2024-12-06T14:52:04Z</time>
      </trkpt>
      <trkpt lat="43.43145" lon="6.39914">
        <ele>66</ele>
        <time>2024-12-06T14:52:08Z</time>
      </trkpt>
      <trkpt lat="43.43157" lon="6.39886">
        <ele>67</ele>
        <time>2024-12-06T14:52:36Z</time>
      </trkpt>
      <trkpt lat="43.43159" lon="6.39881">
        <ele>67</ele>
        <time>2024-12-06T14:52:46Z</time>
      </trkpt>
      <trkpt lat="43.43161" lon="6.39876">
        <ele>67</ele>
        <time>2024-12-06T14:52:52Z</time>
      </trkpt>
      <trkpt lat="43.43163" lon="6.39872">
        <ele>67</ele>
        <time>2024-12-06T14:52:56Z</time>
      </trkpt>
      <trkpt lat="43.43165" lon="6.39868">
        <ele>68</ele>
        <time>2024-12-06T14:53:00Z</time>
      </trkpt>
      <trkpt lat="43.43175" lon="6.39834">
        <ele>68</ele>
        <time>2024-12-06T14:53:30Z</time>
      </trkpt>
      <trkpt lat="43.43181" lon="6.39825">
        <ele>68</ele>
        <time>2024-12-06T14:53:40Z</time>
      </trkpt>
      <trkpt lat="43.43185" lon="6.39823">
        <ele>68</ele>
        <time>2024-12-06T14:53:46Z</time>
      </trkpt>
      <trkpt lat="43.4319" lon="6.39822">
        <ele>68</ele>
        <time>2024-12-06T14:53:50Z</time>
      </trkpt>
      <trkpt lat="43.43194" lon="6.39818">
        <ele>67</ele>
        <time>2024-12-06T14:53:56Z</time>
      </trkpt>
      <trkpt lat="43.43197" lon="6.39814">
        <ele>66</ele>
        <time>2024-12-06T14:54:00Z</time>
      </trkpt>
      <trkpt lat="43.43201" lon="6.39811">
        <ele>66</ele>
        <time>2024-12-06T14:54:04Z</time>
      </trkpt>
      <trkpt lat="43.43204" lon="6.39807">
        <ele>66</ele>
        <time>2024-12-06T14:54:08Z</time>
      </trkpt>
      <trkpt lat="43.43218" lon="6.39793">
        <ele>66</ele>
        <time>2024-12-06T14:54:24Z</time>
      </trkpt>
      <trkpt lat="43.43221" lon="6.39789">
        <ele>66</ele>
        <time>2024-12-06T14:54:28Z</time>
      </trkpt>
      <trkpt lat="43.43233" lon="6.39781">
        <ele>67</ele>
        <time>2024-12-06T14:54:42Z</time>
      </trkpt>
      <trkpt lat="43.43242" lon="6.39772">
        <ele>67</ele>
        <time>2024-12-06T14:54:54Z</time>
      </trkpt>
      <trkpt lat="43.43247" lon="6.3977">
        <ele>67</ele>
        <time>2024-12-06T14:54:58Z</time>
      </trkpt>
      <trkpt lat="43.43255" lon="6.39765">
        <ele>67</ele>
        <time>2024-12-06T14:55:06Z</time>
      </trkpt>
      <trkpt lat="43.43259" lon="6.39764">
        <ele>67</ele>
        <time>2024-12-06T14:55:10Z</time>
      </trkpt>
      <trkpt lat="43.43267" lon="6.3976">
        <ele>66</ele>
        <time>2024-12-06T14:55:18Z</time>
      </trkpt>
      <trkpt lat="43.43271" lon="6.39757">
        <ele>65</ele>
        <time>2024-12-06T14:55:22Z</time>
      </trkpt>
      <trkpt lat="43.43296" lon="6.39743">
        <ele>64</ele>
        <time>2024-12-06T14:55:46Z</time>
      </trkpt>
      <trkpt lat="43.433" lon="6.39741">
        <ele>64</ele>
        <time>2024-12-06T14:55:50Z</time>
      </trkpt>
      <trkpt lat="43.43319" lon="6.39732">
        <ele>67</ele>
        <time>2024-12-06T14:56:10Z</time>
      </trkpt>
      <trkpt lat="43.43328" lon="6.39727">
        <ele>66</ele>
        <time>2024-12-06T14:56:20Z</time>
      </trkpt>
      <trkpt lat="43.43349" lon="6.39712">
        <ele>66</ele>
        <time>2024-12-06T14:56:44Z</time>
      </trkpt>
      <trkpt lat="43.43354" lon="6.3971">
        <ele>67</ele>
        <time>2024-12-06T14:56:48Z</time>
      </trkpt>
      <trkpt lat="43.43384" lon="6.39694">
        <ele>70</ele>
        <time>2024-12-06T14:57:16Z</time>
      </trkpt>
      <trkpt lat="43.43386" lon="6.39689">
        <ele>69</ele>
        <time>2024-12-06T14:57:24Z</time>
      </trkpt>
      <trkpt lat="43.43388" lon="6.39687">
        <ele>70</ele>
        <time>2024-12-06T14:57:30Z</time>
      </trkpt>
      <trkpt lat="43.43395" lon="6.39684">
        <ele>73</ele>
        <time>2024-12-06T14:57:50Z</time>
      </trkpt>
      <trkpt lat="43.43402" lon="6.39677">
        <ele>72</ele>
        <time>2024-12-06T14:58:02Z</time>
      </trkpt>
      <trkpt lat="43.43406" lon="6.39673">
        <ele>72</ele>
        <time>2024-12-06T14:58:08Z</time>
      </trkpt>
      <trkpt lat="43.43414" lon="6.39669">
        <ele>70</ele>
        <time>2024-12-06T14:58:16Z</time>
      </trkpt>
      <trkpt lat="43.43418" lon="6.39666">
        <ele>69</ele>
        <time>2024-12-06T14:58:20Z</time>
      </trkpt>
      <trkpt lat="43.43421" lon="6.3966">
        <ele>68</ele>
        <time>2024-12-06T14:58:26Z</time>
      </trkpt>
      <trkpt lat="43.43431" lon="6.39646">
        <ele>68</ele>
        <time>2024-12-06T14:58:40Z</time>
      </trkpt>
      <trkpt lat="43.4344" lon="6.39632">
        <ele>70</ele>
        <time>2024-12-06T14:58:52Z</time>
      </trkpt>
      <trkpt lat="43.43442" lon="6.39627">
        <ele>71</ele>
        <time>2024-12-06T14:58:56Z</time>
      </trkpt>
      <trkpt lat="43.43467" lon="6.39593">
        <ele>73</ele>
        <time>2024-12-06T14:59:29Z</time>
      </trkpt>
      <trkpt lat="43.43469" lon="6.39589">
        <ele>74</ele>
        <time>2024-12-06T14:59:33Z</time>
      </trkpt>
      <trkpt lat="43.43484" lon="6.3957">
        <ele>76</ele>
        <time>2024-12-06T14:59:53Z</time>
      </trkpt>
      <trkpt lat="43.43488" lon="6.39566">
        <ele>77</ele>
        <time>2024-12-06T14:59:57Z</time>
      </trkpt>
      <trkpt lat="43.43491" lon="6.39562">
        <ele>77</ele>
        <time>2024-12-06T15:00:01Z</time>
      </trkpt>
      <trkpt lat="43.43494" lon="6.39558">
        <ele>77</ele>
        <time>2024-12-06T15:00:05Z</time>
      </trkpt>
      <trkpt lat="43.43516" lon="6.39534">
        <ele>77</ele>
        <time>2024-12-06T15:00:35Z</time>
      </trkpt>
      <trkpt lat="43.43545" lon="6.39516">
        <ele>77</ele>
        <time>2024-12-06T15:01:04Z</time>
      </trkpt>
      <trkpt lat="43.43551" lon="6.3951">
        <ele>77</ele>
        <time>2024-12-06T15:01:12Z</time>
      </trkpt>
      <trkpt lat="43.43555" lon="6.39508">
        <ele>77</ele>
        <time>2024-12-06T15:01:16Z</time>
      </trkpt>
      <trkpt lat="43.43559" lon="6.39506">
        <ele>78</ele>
        <time>2024-12-06T15:01:20Z</time>
      </trkpt>
      <trkpt lat="43.43565" lon="6.395">
        <ele>77</ele>
        <time>2024-12-06T15:01:28Z</time>
      </trkpt>
      <trkpt lat="43.43568" lon="6.39497">
        <ele>77</ele>
        <time>2024-12-06T15:01:32Z</time>
      </trkpt>
      <trkpt lat="43.4358" lon="6.39471">
        <ele>79</ele>
        <time>2024-12-06T15:01:55Z</time>
      </trkpt>
      <trkpt lat="43.4358" lon="6.39465">
        <ele>80</ele>
        <time>2024-12-06T15:01:59Z</time>
      </trkpt>
      <trkpt lat="43.43582" lon="6.39457">
        <ele>80</ele>
        <time>2024-12-06T15:02:05Z</time>
      </trkpt>
      <trkpt lat="43.43588" lon="6.39445">
        <ele>80</ele>
        <time>2024-12-06T15:02:15Z</time>
      </trkpt>
      <trkpt lat="43.43596" lon="6.39429">
        <ele>80</ele>
        <time>2024-12-06T15:02:27Z</time>
      </trkpt>
      <trkpt lat="43.43598" lon="6.39424">
        <ele>80</ele>
        <time>2024-12-06T15:02:31Z</time>
      </trkpt>
      <trkpt lat="43.43601" lon="6.39412">
        <ele>80</ele>
        <time>2024-12-06T15:02:39Z</time>
      </trkpt>
      <trkpt lat="43.43606" lon="6.394">
        <ele>78</ele>
        <time>2024-12-06T15:02:49Z</time>
      </trkpt>
      <trkpt lat="43.43612" lon="6.39388">
        <ele>77</ele>
        <time>2024-12-06T15:02:59Z</time>
      </trkpt>
      <trkpt lat="43.43615" lon="6.39382">
        <ele>77</ele>
        <time>2024-12-06T15:03:05Z</time>
      </trkpt>
      <trkpt lat="43.43618" lon="6.39375">
        <ele>77</ele>
        <time>2024-12-06T15:03:11Z</time>
      </trkpt>
      <trkpt lat="43.43619" lon="6.39369">
        <ele>77</ele>
        <time>2024-12-06T15:03:15Z</time>
      </trkpt>
      <trkpt lat="43.43624" lon="6.39356">
        <ele>80</ele>
        <time>2024-12-06T15:03:28Z</time>
      </trkpt>
      <trkpt lat="43.43627" lon="6.39352">
        <ele>80</ele>
        <time>2024-12-06T15:03:43Z</time>
      </trkpt>
      <trkpt lat="43.43629" lon="6.39351">
        <ele>83</ele>
        <time>2024-12-06T15:03:59Z</time>
      </trkpt>
      <trkpt lat="43.43634" lon="6.39346">
        <ele>84</ele>
        <time>2024-12-06T15:04:19Z</time>
      </trkpt>
      <trkpt lat="43.43637" lon="6.39344">
        <ele>85</ele>
        <time>2024-12-06T15:04:27Z</time>
      </trkpt>
      <trkpt lat="43.43641" lon="6.3934">
        <ele>84</ele>
        <time>2024-12-06T15:04:35Z</time>
      </trkpt>
      <trkpt lat="43.43644" lon="6.39337">
        <ele>85</ele>
        <time>2024-12-06T15:04:41Z</time>
      </trkpt>
      <trkpt lat="43.43647" lon="6.39335">
        <ele>86</ele>
        <time>2024-12-06T15:04:53Z</time>
      </trkpt>
      <trkpt lat="43.43651" lon="6.39333">
        <ele>89</ele>
        <time>2024-12-06T15:06:24Z</time>
      </trkpt>
      <trkpt lat="43.43656" lon="6.39326">
        <ele>89</ele>
        <time>2024-12-06T15:06:32Z</time>
      </trkpt>
      <trkpt lat="43.43659" lon="6.3932">
        <ele>89</ele>
        <time>2024-12-06T15:06:40Z</time>
      </trkpt>
      <trkpt lat="43.43665" lon="6.39312">
        <ele>91</ele>
        <time>2024-12-06T15:06:50Z</time>
      </trkpt>
      <trkpt lat="43.43669" lon="6.3931">
        <ele>92</ele>
        <time>2024-12-06T15:06:56Z</time>
      </trkpt>
      <trkpt lat="43.43683" lon="6.39315">
        <ele>91</ele>
        <time>2024-12-06T15:07:10Z</time>
      </trkpt>
      <trkpt lat="43.43694" lon="6.39319">
        <ele>91</ele>
        <time>2024-12-06T15:07:22Z</time>
      </trkpt>
      <trkpt lat="43.43701" lon="6.39323">
        <ele>90</ele>
        <time>2024-12-06T15:07:30Z</time>
      </trkpt>
      <trkpt lat="43.43706" lon="6.39324">
        <ele>89</ele>
        <time>2024-12-06T15:07:34Z</time>
      </trkpt>
      <trkpt lat="43.43712" lon="6.39326">
        <ele>88</ele>
        <time>2024-12-06T15:07:40Z</time>
      </trkpt>
      <trkpt lat="43.43723" lon="6.39327">
        <ele>87</ele>
        <time>2024-12-06T15:07:48Z</time>
      </trkpt>
      <trkpt lat="43.43734" lon="6.39329">
        <ele>88</ele>
        <time>2024-12-06T15:07:58Z</time>
      </trkpt>
      <trkpt lat="43.43739" lon="6.39329">
        <ele>88</ele>
        <time>2024-12-06T15:08:02Z</time>
      </trkpt>
      <trkpt lat="43.43748" lon="6.39327">
        <ele>89</ele>
        <time>2024-12-06T15:08:12Z</time>
      </trkpt>
      <trkpt lat="43.43757" lon="6.39325">
        <ele>90</ele>
        <time>2024-12-06T15:08:20Z</time>
      </trkpt>
      <trkpt lat="43.43784" lon="6.3932">
        <ele>92</ele>
        <time>2024-12-06T15:08:48Z</time>
      </trkpt>
      <trkpt lat="43.43798" lon="6.3932">
        <ele>93</ele>
        <time>2024-12-06T15:09:02Z</time>
      </trkpt>
      <trkpt lat="43.43807" lon="6.39324">
        <ele>93</ele>
        <time>2024-12-06T15:09:10Z</time>
      </trkpt>
      <trkpt lat="43.43833" lon="6.39331">
        <ele>95</ele>
        <time>2024-12-06T15:09:40Z</time>
      </trkpt>
      <trkpt lat="43.43837" lon="6.3933">
        <ele>96</ele>
        <time>2024-12-06T15:09:48Z</time>
      </trkpt>
      <trkpt lat="43.4384" lon="6.39329">
        <ele>96</ele>
        <time>2024-12-06T15:09:54Z</time>
      </trkpt>
      <trkpt lat="43.43845" lon="6.39327">
        <ele>96</ele>
        <time>2024-12-06T15:10:00Z</time>
      </trkpt>
      <trkpt lat="43.43853" lon="6.39326">
        <ele>95</ele>
        <time>2024-12-06T15:10:12Z</time>
      </trkpt>
      <trkpt lat="43.4386" lon="6.39323">
        <ele>94</ele>
        <time>2024-12-06T15:10:20Z</time>
      </trkpt>
      <trkpt lat="43.43863" lon="6.39323">
        <ele>94</ele>
        <time>2024-12-06T15:10:24Z</time>
      </trkpt>
      <trkpt lat="43.4387" lon="6.39318">
        <ele>93</ele>
        <time>2024-12-06T15:10:33Z</time>
      </trkpt>
      <trkpt lat="43.43875" lon="6.39316">
        <ele>93</ele>
        <time>2024-12-06T15:10:39Z</time>
      </trkpt>
      <trkpt lat="43.43882" lon="6.39309">
        <ele>93</ele>
        <time>2024-12-06T15:10:51Z</time>
      </trkpt>
      <trkpt lat="43.43891" lon="6.39303">
        <ele>94</ele>
        <time>2024-12-06T15:11:03Z</time>
      </trkpt>
      <trkpt lat="43.43903" lon="6.39295">
        <ele>95</ele>
        <time>2024-12-06T15:11:16Z</time>
      </trkpt>
      <trkpt lat="43.43905" lon="6.39292">
        <ele>95</ele>
        <time>2024-12-06T15:11:20Z</time>
      </trkpt>
      <trkpt lat="43.43908" lon="6.39289">
        <ele>96</ele>
        <time>2024-12-06T15:11:27Z</time>
      </trkpt>
      <trkpt lat="43.43912" lon="6.39288">
        <ele>97</ele>
        <time>2024-12-06T15:11:35Z</time>
      </trkpt>
      <trkpt lat="43.43915" lon="6.39286">
        <ele>98</ele>
        <time>2024-12-06T15:11:39Z</time>
      </trkpt>
      <trkpt lat="43.43916" lon="6.39281">
        <ele>100</ele>
        <time>2024-12-06T15:12:15Z</time>
      </trkpt>
      <trkpt lat="43.43916" lon="6.39277">
        <ele>101</ele>
        <time>2024-12-06T15:12:21Z</time>
      </trkpt>
      <trkpt lat="43.43913" lon="6.39275">
        <ele>101</ele>
        <time>2024-12-06T15:12:27Z</time>
      </trkpt>
      <trkpt lat="43.43902" lon="6.39282">
        <ele>99</ele>
        <time>2024-12-06T15:12:47Z</time>
      </trkpt>
      <trkpt lat="43.43899" lon="6.39282">
        <ele>99</ele>
        <time>2024-12-06T15:12:53Z</time>
      </trkpt>
      <trkpt lat="43.43872" lon="6.39288">
        <ele>99</ele>
        <time>2024-12-06T15:13:27Z</time>
      </trkpt>
      <trkpt lat="43.43861" lon="6.39289">
        <ele>100</ele>
        <time>2024-12-06T15:13:40Z</time>
      </trkpt>
      <trkpt lat="43.43858" lon="6.39288">
        <ele>100</ele>
        <time>2024-12-06T15:13:44Z</time>
      </trkpt>
      <trkpt lat="43.43854" lon="6.39286">
        <ele>100</ele>
        <time>2024-12-06T15:13:48Z</time>
      </trkpt>
      <trkpt lat="43.43852" lon="6.39284">
        <ele>99</ele>
        <time>2024-12-06T15:13:52Z</time>
      </trkpt>
      <trkpt lat="43.43848" lon="6.39276">
        <ele>99</ele>
        <time>2024-12-06T15:14:00Z</time>
      </trkpt>
      <trkpt lat="43.43846" lon="6.39262">
        <ele>99</ele>
        <time>2024-12-06T15:14:14Z</time>
      </trkpt>
      <trkpt lat="43.43845" lon="6.39256">
        <ele>99</ele>
        <time>2024-12-06T15:14:18Z</time>
      </trkpt>
      <trkpt lat="43.43844" lon="6.39243">
        <ele>101</ele>
        <time>2024-12-06T15:14:29Z</time>
      </trkpt>
      <trkpt lat="43.43843" lon="6.39238">
        <ele>102</ele>
        <time>2024-12-06T15:14:33Z</time>
      </trkpt>
      <trkpt lat="43.43843" lon="6.39234">
        <ele>102</ele>
        <time>2024-12-06T15:14:37Z</time>
      </trkpt>
      <trkpt lat="43.43836" lon="6.39207">
        <ele>107</ele>
        <time>2024-12-06T15:15:01Z</time>
      </trkpt>
      <trkpt lat="43.43835" lon="6.39203">
        <ele>108</ele>
        <time>2024-12-06T15:15:05Z</time>
      </trkpt>
      <trkpt lat="43.43832" lon="6.39194">
        <ele>107</ele>
        <time>2024-12-06T15:15:13Z</time>
      </trkpt>
      <trkpt lat="43.4383" lon="6.3919">
        <ele>107</ele>
        <time>2024-12-06T15:15:17Z</time>
      </trkpt>
      <trkpt lat="43.43829" lon="6.39184">
        <ele>108</ele>
        <time>2024-12-06T15:15:21Z</time>
      </trkpt>
      <trkpt lat="43.43827" lon="6.39174">
        <ele>109</ele>
        <time>2024-12-06T15:15:31Z</time>
      </trkpt>
      <trkpt lat="43.43815" lon="6.39144">
        <ele>111</ele>
        <time>2024-12-06T15:15:59Z</time>
      </trkpt>
      <trkpt lat="43.43813" lon="6.39141">
        <ele>112</ele>
        <time>2024-12-06T15:16:03Z</time>
      </trkpt>
      <trkpt lat="43.43812" lon="6.39137">
        <ele>113</ele>
        <time>2024-12-06T15:16:09Z</time>
      </trkpt>
      <trkpt lat="43.43807" lon="6.39131">
        <ele>114</ele>
        <time>2024-12-06T15:16:17Z</time>
      </trkpt>
      <trkpt lat="43.43806" lon="6.39128">
        <ele>114</ele>
        <time>2024-12-06T15:16:21Z</time>
      </trkpt>
      <trkpt lat="43.43798" lon="6.39108">
        <ele>115</ele>
        <time>2024-12-06T15:16:41Z</time>
      </trkpt>
      <trkpt lat="43.43797" lon="6.39105">
        <ele>114</ele>
        <time>2024-12-06T15:16:45Z</time>
      </trkpt>
      <trkpt lat="43.43795" lon="6.39102">
        <ele>115</ele>
        <time>2024-12-06T15:16:49Z</time>
      </trkpt>
      <trkpt lat="43.43793" lon="6.39099">
        <ele>114</ele>
        <time>2024-12-06T15:16:53Z</time>
      </trkpt>
      <trkpt lat="43.43792" lon="6.39096">
        <ele>114</ele>
        <time>2024-12-06T15:16:59Z</time>
      </trkpt>
      <trkpt lat="43.4379" lon="6.39094">
        <ele>114</ele>
        <time>2024-12-06T15:17:01Z</time>
      </trkpt>
      <trkpt lat="43.43789" lon="6.39089">
        <ele>115</ele>
        <time>2024-12-06T15:17:05Z</time>
      </trkpt>
      <trkpt lat="43.43786" lon="6.39083">
        <ele>116</ele>
        <time>2024-12-06T15:17:11Z</time>
      </trkpt>
      <trkpt lat="43.43784" lon="6.39079">
        <ele>117</ele>
        <time>2024-12-06T15:17:15Z</time>
      </trkpt>
      <trkpt lat="43.43779" lon="6.39068">
        <ele>118</ele>
        <time>2024-12-06T15:17:25Z</time>
      </trkpt>
      <trkpt lat="43.43777" lon="6.39065">
        <ele>118</ele>
        <time>2024-12-06T15:17:29Z</time>
      </trkpt>
      <trkpt lat="43.43776" lon="6.39059">
        <ele>118</ele>
        <time>2024-12-06T15:17:35Z</time>
      </trkpt>
      <trkpt lat="43.43775" lon="6.39054">
        <ele>120</ele>
        <time>2024-12-06T15:17:39Z</time>
      </trkpt>
      <trkpt lat="43.43775" lon="6.3905">
        <ele>120</ele>
        <time>2024-12-06T15:17:43Z</time>
      </trkpt>
      <trkpt lat="43.43776" lon="6.39043">
        <ele>121</ele>
        <time>2024-12-06T15:17:49Z</time>
      </trkpt>
      <trkpt lat="43.43776" lon="6.39038">
        <ele>122</ele>
        <time>2024-12-06T15:17:53Z</time>
      </trkpt>
      <trkpt lat="43.43777" lon="6.39033">
        <ele>122</ele>
        <time>2024-12-06T15:17:57Z</time>
      </trkpt>
      <trkpt lat="43.43784" lon="6.39006">
        <ele>124</ele>
        <time>2024-12-06T15:18:20Z</time>
      </trkpt>
      <trkpt lat="43.43784" lon="6.39001">
        <ele>124</ele>
        <time>2024-12-06T15:18:24Z</time>
      </trkpt>
      <trkpt lat="43.43785" lon="6.38997">
        <ele>124</ele>
        <time>2024-12-06T15:18:28Z</time>
      </trkpt>
      <trkpt lat="43.43786" lon="6.38994">
        <ele>124</ele>
        <time>2024-12-06T15:18:32Z</time>
      </trkpt>
      <trkpt lat="43.43787" lon="6.3899">
        <ele>125</ele>
        <time>2024-12-06T15:18:36Z</time>
      </trkpt>
      <trkpt lat="43.4379" lon="6.38977">
        <ele>126</ele>
        <time>2024-12-06T15:18:48Z</time>
      </trkpt>
      <trkpt lat="43.43793" lon="6.38972">
        <ele>125</ele>
        <time>2024-12-06T15:18:52Z</time>
      </trkpt>
      <trkpt lat="43.43794" lon="6.38967">
        <ele>126</ele>
        <time>2024-12-06T15:18:56Z</time>
      </trkpt>
      <trkpt lat="43.43797" lon="6.3896">
        <ele>127</ele>
        <time>2024-12-06T15:19:04Z</time>
      </trkpt>
      <trkpt lat="43.43798" lon="6.38955">
        <ele>128</ele>
        <time>2024-12-06T15:19:08Z</time>
      </trkpt>
      <trkpt lat="43.43804" lon="6.38943">
        <ele>128</ele>
        <time>2024-12-06T15:19:20Z</time>
      </trkpt>
      <trkpt lat="43.43807" lon="6.38935">
        <ele>129</ele>
        <time>2024-12-06T15:19:28Z</time>
      </trkpt>
      <trkpt lat="43.4382" lon="6.38908">
        <ele>131</ele>
        <time>2024-12-06T15:19:56Z</time>
      </trkpt>
      <trkpt lat="43.43823" lon="6.38904">
        <ele>131</ele>
        <time>2024-12-06T15:20:00Z</time>
      </trkpt>
      <trkpt lat="43.43827" lon="6.38895">
        <ele>131</ele>
        <time>2024-12-06T15:20:08Z</time>
      </trkpt>
      <trkpt lat="43.43831" lon="6.38885">
        <ele>131</ele>
        <time>2024-12-06T15:20:16Z</time>
      </trkpt>
      <trkpt lat="43.43832" lon="6.38882">
        <ele>131</ele>
        <time>2024-12-06T15:20:20Z</time>
      </trkpt>
      <trkpt lat="43.43835" lon="6.38872">
        <ele>131</ele>
        <time>2024-12-06T15:20:30Z</time>
      </trkpt>
      <trkpt lat="43.43837" lon="6.38856">
        <ele>132</ele>
        <time>2024-12-06T15:20:42Z</time>
      </trkpt>
      <trkpt lat="43.43837" lon="6.3885">
        <ele>132</ele>
        <time>2024-12-06T15:20:46Z</time>
      </trkpt>
      <trkpt lat="43.43838" lon="6.3884">
        <ele>133</ele>
        <time>2024-12-06T15:20:54Z</time>
      </trkpt>
      <trkpt lat="43.43838" lon="6.38837">
        <ele>133</ele>
        <time>2024-12-06T15:20:58Z</time>
      </trkpt>
      <trkpt lat="43.43839" lon="6.38831">
        <ele>133</ele>
        <time>2024-12-06T15:21:02Z</time>
      </trkpt>
      <trkpt lat="43.43839" lon="6.38825">
        <ele>133</ele>
        <time>2024-12-06T15:21:06Z</time>
      </trkpt>
      <trkpt lat="43.43839" lon="6.3882">
        <ele>134</ele>
        <time>2024-12-06T15:21:10Z</time>
      </trkpt>
      <trkpt lat="43.4384" lon="6.38817">
        <ele>134</ele>
        <time>2024-12-06T15:21:14Z</time>
      </trkpt>
      <trkpt lat="43.43839" lon="6.38812">
        <ele>134</ele>
        <time>2024-12-06T15:21:16Z</time>
      </trkpt>
      <trkpt lat="43.43839" lon="6.38808">
        <ele>135</ele>
        <time>2024-12-06T15:21:20Z</time>
      </trkpt>
      <trkpt lat="43.43839" lon="6.38803">
        <ele>137</ele>
        <time>2024-12-06T15:21:24Z</time>
      </trkpt>
      <trkpt lat="43.43841" lon="6.38786">
        <ele>139</ele>
        <time>2024-12-06T15:21:40Z</time>
      </trkpt>
      <trkpt lat="43.43841" lon="6.38777">
        <ele>140</ele>
        <time>2024-12-06T15:21:50Z</time>
      </trkpt>
      <trkpt lat="43.43842" lon="6.38767">
        <ele>140</ele>
        <time>2024-12-06T15:21:58Z</time>
      </trkpt>
      <trkpt lat="43.43842" lon="6.38762">
        <ele>140</ele>
        <time>2024-12-06T15:22:02Z</time>
      </trkpt>
      <trkpt lat="43.43843" lon="6.38757">
        <ele>140</ele>
        <time>2024-12-06T15:22:06Z</time>
      </trkpt>
      <trkpt lat="43.43844" lon="6.38752">
        <ele>141</ele>
        <time>2024-12-06T15:22:10Z</time>
      </trkpt>
      <trkpt lat="43.43844" lon="6.38747">
        <ele>141</ele>
        <time>2024-12-06T15:22:14Z</time>
      </trkpt>
      <trkpt lat="43.43846" lon="6.38734">
        <ele>141</ele>
        <time>2024-12-06T15:22:25Z</time>
      </trkpt>
      <trkpt lat="43.43846" lon="6.38729">
        <ele>142</ele>
        <time>2024-12-06T15:22:29Z</time>
      </trkpt>
      <trkpt lat="43.43846" lon="6.38723">
        <ele>142</ele>
        <time>2024-12-06T15:22:35Z</time>
      </trkpt>
      <trkpt lat="43.43846" lon="6.38717">
        <ele>142</ele>
        <time>2024-12-06T15:22:41Z</time>
      </trkpt>
      <trkpt lat="43.43846" lon="6.38713">
        <ele>142</ele>
        <time>2024-12-06T15:22:45Z</time>
      </trkpt>
      <trkpt lat="43.43849" lon="6.38677">
        <ele>144</ele>
        <time>2024-12-06T15:23:18Z</time>
      </trkpt>
      <trkpt lat="43.43849" lon="6.38671">
        <ele>145</ele>
        <time>2024-12-06T15:23:24Z</time>
      </trkpt>
      <trkpt lat="43.43848" lon="6.38666">
        <ele>145</ele>
        <time>2024-12-06T15:23:28Z</time>
      </trkpt>
      <trkpt lat="43.43848" lon="6.38661">
        <ele>146</ele>
        <time>2024-12-06T15:23:32Z</time>
      </trkpt>
      <trkpt lat="43.43849" lon="6.38656">
        <ele>147</ele>
        <time>2024-12-06T15:23:38Z</time>
      </trkpt>
      <trkpt lat="43.4385" lon="6.38644">
        <ele>149</ele>
        <time>2024-12-06T15:23:50Z</time>
      </trkpt>
      <trkpt lat="43.4385" lon="6.38641">
        <ele>149</ele>
        <time>2024-12-06T15:23:54Z</time>
      </trkpt>
      <trkpt lat="43.43851" lon="6.38637">
        <ele>149</ele>
        <time>2024-12-06T15:23:56Z</time>
      </trkpt>
      <trkpt lat="43.4385" lon="6.38634">
        <ele>149</ele>
        <time>2024-12-06T15:24:02Z</time>
      </trkpt>
      <trkpt lat="43.43852" lon="6.38632">
        <ele>148</ele>
        <time>2024-12-06T15:24:38Z</time>
      </trkpt>
      <trkpt lat="43.43853" lon="6.38637">
        <ele>148</ele>
        <time>2024-12-06T15:24:55Z</time>
      </trkpt>
      <trkpt lat="43.43851" lon="6.38637">
        <ele>148</ele>
        <time>2024-12-06T15:25:06Z</time>
      </trkpt>
      <trkpt lat="43.43853" lon="6.38628">
        <ele>148</ele>
        <time>2024-12-06T15:25:44Z</time>
      </trkpt>
      <trkpt lat="43.4385" lon="6.38625">
        <ele>149</ele>
        <time>2024-12-06T15:25:58Z</time>
      </trkpt>
      <trkpt lat="43.4385" lon="6.3862">
        <ele>148</ele>
        <time>2024-12-06T15:26:02Z</time>
      </trkpt>
      <trkpt lat="43.4385" lon="6.38616">
        <ele>148</ele>
        <time>2024-12-06T15:26:06Z</time>
      </trkpt>
      <trkpt lat="43.43851" lon="6.38611">
        <ele>148</ele>
        <time>2024-12-06T15:26:10Z</time>
      </trkpt>
      <trkpt lat="43.43854" lon="6.38586">
        <ele>148</ele>
        <time>2024-12-06T15:26:30Z</time>
      </trkpt>
      <trkpt lat="43.43855" lon="6.38572">
        <ele>146</ele>
        <time>2024-12-06T15:26:40Z</time>
      </trkpt>
      <trkpt lat="43.43855" lon="6.38564">
        <ele>145</ele>
        <time>2024-12-06T15:26:46Z</time>
      </trkpt>
      <trkpt lat="43.43856" lon="6.38557">
        <ele>145</ele>
        <time>2024-12-06T15:26:50Z</time>
      </trkpt>
      <trkpt lat="43.43856" lon="6.38544">
        <ele>146</ele>
        <time>2024-12-06T15:26:58Z</time>
      </trkpt>
      <trkpt lat="43.43857" lon="6.38538">
        <ele>146</ele>
        <time>2024-12-06T15:27:02Z</time>
      </trkpt>
      <trkpt lat="43.43859" lon="6.38532">
        <ele>146</ele>
        <time>2024-12-06T15:27:06Z</time>
      </trkpt>
      <trkpt lat="43.43859" lon="6.38529">
        <ele>146</ele>
        <time>2024-12-06T15:27:08Z</time>
      </trkpt>
      <trkpt lat="43.43858" lon="6.38524">
        <ele>145</ele>
        <time>2024-12-06T15:27:12Z</time>
      </trkpt>
      <trkpt lat="43.43858" lon="6.38519">
        <ele>145</ele>
        <time>2024-12-06T15:27:16Z</time>
      </trkpt>
      <trkpt lat="43.4386" lon="6.38517">
        <ele>146</ele>
        <time>2024-12-06T15:27:20Z</time>
      </trkpt>
      <trkpt lat="43.4387" lon="6.38507">
        <ele>148</ele>
        <time>2024-12-06T15:27:38Z</time>
      </trkpt>
      <trkpt lat="43.43873" lon="6.38506">
        <ele>147</ele>
        <time>2024-12-06T15:27:42Z</time>
      </trkpt>
      <trkpt lat="43.43876" lon="6.38506">
        <ele>147</ele>
        <time>2024-12-06T15:27:46Z</time>
      </trkpt>
      <trkpt lat="43.43886" lon="6.38507">
        <ele>146</ele>
        <time>2024-12-06T15:27:56Z</time>
      </trkpt>
      <trkpt lat="43.43894" lon="6.38507">
        <ele>148</ele>
        <time>2024-12-06T15:28:06Z</time>
      </trkpt>
      <trkpt lat="43.43898" lon="6.38505">
        <ele>148</ele>
        <time>2024-12-06T15:28:10Z</time>
      </trkpt>
      <trkpt lat="43.43917" lon="6.38503">
        <ele>150</ele>
        <time>2024-12-06T15:28:32Z</time>
      </trkpt>
      <trkpt lat="43.43923" lon="6.38501">
        <ele>152</ele>
        <time>2024-12-06T15:28:42Z</time>
      </trkpt>
      <trkpt lat="43.43946" lon="6.38499">
        <ele>157</ele>
        <time>2024-12-06T15:29:14Z</time>
      </trkpt>
      <trkpt lat="43.43954" lon="6.38498">
        <ele>159</ele>
        <time>2024-12-06T15:29:23Z</time>
      </trkpt>
      <trkpt lat="43.43957" lon="6.38496">
        <ele>159</ele>
        <time>2024-12-06T15:29:27Z</time>
      </trkpt>
      <trkpt lat="43.43961" lon="6.38495">
        <ele>160</ele>
        <time>2024-12-06T15:29:33Z</time>
      </trkpt>
      <trkpt lat="43.43985" lon="6.38492">
        <ele>163</ele>
        <time>2024-12-06T15:30:04Z</time>
      </trkpt>
      <trkpt lat="43.44001" lon="6.38487">
        <ele>166</ele>
        <time>2024-12-06T15:30:24Z</time>
      </trkpt>
      <trkpt lat="43.44012" lon="6.38483">
        <ele>168</ele>
        <time>2024-12-06T15:30:36Z</time>
      </trkpt>
      <trkpt lat="43.4402" lon="6.38481">
        <ele>169</ele>
        <time>2024-12-06T15:30:47Z</time>
      </trkpt>
      <trkpt lat="43.44028" lon="6.3848">
        <ele>170</ele>
        <time>2024-12-06T15:30:55Z</time>
      </trkpt>
      <trkpt lat="43.44034" lon="6.38479">
        <ele>171</ele>
        <time>2024-12-06T15:31:03Z</time>
      </trkpt>
      <trkpt lat="43.44039" lon="6.38478">
        <ele>171</ele>
        <time>2024-12-06T15:31:07Z</time>
      </trkpt>
      <trkpt lat="43.44043" lon="6.38477">
        <ele>170</ele>
        <time>2024-12-06T15:31:11Z</time>
      </trkpt>
      <trkpt lat="43.44058" lon="6.38473">
        <ele>172</ele>
        <time>2024-12-06T15:31:27Z</time>
      </trkpt>
      <trkpt lat="43.44065" lon="6.38473">
        <ele>172</ele>
        <time>2024-12-06T15:31:33Z</time>
      </trkpt>
      <trkpt lat="43.44069" lon="6.38472">
        <ele>172</ele>
        <time>2024-12-06T15:31:37Z</time>
      </trkpt>
      <trkpt lat="43.44086" lon="6.38471">
        <ele>173</ele>
        <time>2024-12-06T15:31:53Z</time>
      </trkpt>
      <trkpt lat="43.44094" lon="6.38472">
        <ele>174</ele>
        <time>2024-12-06T15:32:02Z</time>
      </trkpt>
      <trkpt lat="43.44097" lon="6.38473">
        <ele>172</ele>
        <time>2024-12-06T15:32:06Z</time>
      </trkpt>
      <trkpt lat="43.44107" lon="6.38476">
        <ele>171</ele>
        <time>2024-12-06T15:32:14Z</time>
      </trkpt>
      <trkpt lat="43.4411" lon="6.38476">
        <ele>170</ele>
        <time>2024-12-06T15:32:20Z</time>
      </trkpt>
      <trkpt lat="43.44116" lon="6.38476">
        <ele>171</ele>
        <time>2024-12-06T15:33:32Z</time>
      </trkpt>
      <trkpt lat="43.44133" lon="6.38477">
        <ele>166</ele>
        <time>2024-12-06T15:33:57Z</time>
      </trkpt>
      <trkpt lat="43.44137" lon="6.38478">
        <ele>166</ele>
        <time>2024-12-06T15:34:01Z</time>
      </trkpt>
      <trkpt lat="43.44156" lon="6.3848">
        <ele>164</ele>
        <time>2024-12-06T15:34:19Z</time>
      </trkpt>
      <trkpt lat="43.44169" lon="6.38481">
        <ele>163</ele>
        <time>2024-12-06T15:34:31Z</time>
      </trkpt>
      <trkpt lat="43.44191" lon="6.38475">
        <ele>163</ele>
        <time>2024-12-06T15:35:10Z</time>
      </trkpt>
      <trkpt lat="43.44206" lon="6.38474">
        <ele>163</ele>
        <time>2024-12-06T15:35:28Z</time>
      </trkpt>
      <trkpt lat="43.44234" lon="6.38469">
        <ele>163</ele>
        <time>2024-12-06T15:35:58Z</time>
      </trkpt>
      <trkpt lat="43.44263" lon="6.38458">
        <ele>164</ele>
        <time>2024-12-06T15:36:30Z</time>
      </trkpt>
      <trkpt lat="43.44272" lon="6.38454">
        <ele>164</ele>
        <time>2024-12-06T15:36:40Z</time>
      </trkpt>
      <trkpt lat="43.4428" lon="6.38452">
        <ele>166</ele>
        <time>2024-12-06T15:36:48Z</time>
      </trkpt>
      <trkpt lat="43.44293" lon="6.38446">
        <ele>166</ele>
        <time>2024-12-06T15:37:02Z</time>
      </trkpt>
      <trkpt lat="43.44308" lon="6.38432">
        <ele>170</ele>
        <time>2024-12-06T15:37:22Z</time>
      </trkpt>
      <trkpt lat="43.44328" lon="6.38401">
        <ele>171</ele>
        <time>2024-12-06T15:37:54Z</time>
      </trkpt>
      <trkpt lat="43.44338" lon="6.38384">
        <ele>172</ele>
        <time>2024-12-06T15:38:10Z</time>
      </trkpt>
      <trkpt lat="43.44342" lon="6.38379">
        <ele>172</ele>
        <time>2024-12-06T15:38:16Z</time>
      </trkpt>
      <trkpt lat="43.44344" lon="6.38374">
        <ele>172</ele>
        <time>2024-12-06T15:38:20Z</time>
      </trkpt>
      <trkpt lat="43.44351" lon="6.38365">
        <ele>173</ele>
        <time>2024-12-06T15:38:30Z</time>
      </trkpt>
      <trkpt lat="43.44356" lon="6.38355">
        <ele>172</ele>
        <time>2024-12-06T15:38:38Z</time>
      </trkpt>
      <trkpt lat="43.44374" lon="6.38336">
        <ele>172</ele>
        <time>2024-12-06T15:39:01Z</time>
      </trkpt>
      <trkpt lat="43.44404" lon="6.3832">
        <ele>172</ele>
        <time>2024-12-06T15:39:31Z</time>
      </trkpt>
      <trkpt lat="43.44435" lon="6.38304">
        <ele>171</ele>
        <time>2024-12-06T15:40:04Z</time>
      </trkpt>
      <trkpt lat="43.44443" lon="6.38301">
        <ele>171</ele>
        <time>2024-12-06T15:40:12Z</time>
      </trkpt>
      <trkpt lat="43.44447" lon="6.38299">
        <ele>171</ele>
        <time>2024-12-06T15:40:16Z</time>
      </trkpt>
      <trkpt lat="43.4445" lon="6.38296">
        <ele>171</ele>
        <time>2024-12-06T15:40:19Z</time>
      </trkpt>
      <trkpt lat="43.44481" lon="6.38283">
        <ele>167</ele>
        <time>2024-12-06T15:40:50Z</time>
      </trkpt>
      <trkpt lat="43.44485" lon="6.38281">
        <ele>166</ele>
        <time>2024-12-06T15:40:54Z</time>
      </trkpt>
      <trkpt lat="43.44488" lon="6.38279">
        <ele>166</ele>
        <time>2024-12-06T15:40:58Z</time>
      </trkpt>
      <trkpt lat="43.44504" lon="6.3827">
        <ele>166</ele>
        <time>2024-12-06T15:41:15Z</time>
      </trkpt>
      <trkpt lat="43.44507" lon="6.3827">
        <ele>167</ele>
        <time>2024-12-06T15:41:36Z</time>
      </trkpt>
      <trkpt lat="43.4452" lon="6.38262">
        <ele>168</ele>
        <time>2024-12-06T15:41:56Z</time>
      </trkpt>
      <trkpt lat="43.44536" lon="6.38249">
        <ele>167</ele>
        <time>2024-12-06T15:42:14Z</time>
      </trkpt>
      <trkpt lat="43.44538" lon="6.38248">
        <ele>168</ele>
        <time>2024-12-06T15:42:20Z</time>
      </trkpt>
      <trkpt lat="43.4454" lon="6.38249">
        <ele>169</ele>
        <time>2024-12-06T15:42:32Z</time>
      </trkpt>
      <trkpt lat="43.4454" lon="6.38245">
        <ele>168</ele>
        <time>2024-12-06T15:43:04Z</time>
      </trkpt>
    </trkseg>
  </trk>
</gpx>